M I D A S
Marine Information and Data Acquisition System
Tripno 443 of the Zeeleeuw from 2003-03-05 10:22:25 to 2003-03-05 15:07:28
Back to CruiseResearch ActivitiesStationsMapUnderway DataData graphs

EquipmentUnitsComment
TimeDGPSUTC
LatitudeDGPSDM.mWGS84
LongitudeDGPSDM.mWGS84
TemperatureSBE03/SBE38deg celciusITS90
ConductivitySBE21S/mITS90
SalinitySBE21 Practical Salinity Units
ChlorophylAChelsea fluorimeterg/lCalibrated in Aceton
Missing or incorrect values are displayed as -999
Sea surface data collected by the RV Zeeleeuw from 2003-03-05 10:22:25 to 2003-03-05 15:07:28
                                                                                    Next 1000 lines
Time Latitude Longitude Temperature Conductivity Salinity ChlorophylA
2003-03-05 10:22:33 51°13.696 2°55.758 14.400153 0.087123 0.458948 -0.848668
2003-03-05 10:22:38 51°13.697 2°55.759 14.400855 0.087123 0.458983 -0.814958
2003-03-05 10:22:43 51°13.698 2°55.76 14.40068 0.087123 0.459011 -0.814958
2003-03-05 10:22:48 51°13.699 2°55.761 14.403313 0.087123 0.458997 -0.848668
2003-03-05 10:22:53 51°13.7 2°55.761 14.403313 0.087123 0.458997 -0.848668
2003-03-05 10:22:56 51°13.7 2°55.76 14.405683 0.087123 0.458983 -0.814958
2003-03-05 10:23:03 51°13.7 2°55.758 14.402962 0.087123 0.458962 -0.814958
2003-03-05 10:23:08 51°13.7 2°55.757 14.407307 0.087123 0.458941 -0.814958
2003-03-05 10:23:13 51°13.699 2°55.755 14.408009 0.087123 0.458934 -0.814958
2003-03-05 10:23:18 51°13.698 2°55.752 14.410291 0.087123 0.458927 -0.814958
2003-03-05 10:23:21 51°13.697 2°55.751 14.410291 0.087123 0.458927 -0.814958
2003-03-05 10:23:29 51°13.695 2°55.747 14.410686 0.087123 0.458955 -0.814958
2003-03-05 10:23:34 51°13.694 2°55.744 14.411783 0.087123 0.458969 -0.814958
2003-03-05 10:23:39 51°13.692 2°55.742 14.411476 0.087123 0.458997 -0.814958
2003-03-05 10:23:44 51°13.691 2°55.74 14.411608 0.087123 0.459025 -0.814958
2003-03-05 10:23:49 51°13.689 2°55.739 14.412573 0.087123 0.459046 -0.814958
2003-03-05 10:23:53 51°13.689 2°55.737 14.412573 0.087123 0.459046 -0.814958
2003-03-05 10:23:59 51°13.689 2°55.737 14.413188 0.087123 0.459053 -0.814958
2003-03-05 10:24:03 51°13.689 2°55.736 14.414943 0.087123 0.459053 -0.814958
2003-03-05 10:24:09 51°13.689 2°55.736 14.415865 0.087123 0.459053 -0.781249
2003-03-05 10:24:14 51°13.69 2°55.736 14.416698 0.087123 0.459053 -0.781249
2003-03-05 10:24:19 51°13.692 2°55.736 14.417971 0.087123 0.45906 -0.814958
2003-03-05 10:24:24 51°13.693 2°55.735 14.417971 0.087123 0.45906 -0.814958
2003-03-05 10:24:29 51°13.695 2°55.735 14.418805 0.087123 0.459067 -0.781249
2003-03-05 10:24:33 51°13.697 2°55.734 14.419946 0.087123 0.459088 -0.814958
2003-03-05 10:24:39 51°13.701 2°55.733 14.42113 0.087123 0.459103 -0.814958
2003-03-05 10:24:42 51°13.702 2°55.732 14.420999 0.087123 0.459117 -0.814958
2003-03-05 10:24:48 51°13.706 2°55.729 14.422183 0.087123 0.459117 -0.814958
2003-03-05 10:24:52 51°13.709 2°55.727 14.422183 0.087123 0.459117 -0.814958
2003-03-05 10:24:58 51°13.713 2°55.724 14.421218 0.087123 0.45911 -0.814958
2003-03-05 10:25:03 51°13.718 2°55.72 14.420999 0.087123 0.459103 -0.781249
2003-03-05 10:25:08 51°13.723 2°55.716 14.42056 0.087123 0.459096 -0.781249
2003-03-05 10:25:13 51°13.728 2°55.712 14.422447 0.087123 0.459103 -0.814958
2003-03-05 10:25:17 51°13.733 2°55.709 14.4235 0.087123 0.459117 -0.814958
2003-03-05 10:25:20 51°13.736 2°55.706 14.4235 0.087123 0.459117 -0.814958
2003-03-05 10:25:25 51°13.743 2°55.7 14.423982 0.087123 0.459131 -0.781249
2003-03-05 10:25:33 51°13.756 2°55.688 14.424904 0.087123 0.459159 -0.814958
2003-03-05 10:25:35 51°13.759 2°55.685 14.425123 0.087123 0.45918 -0.814958
2003-03-05 10:25:43 51°13.77 2°55.675 14.426001 0.087123 0.459194 -0.814958
2003-03-05 10:25:48 51°13.777 2°55.67 14.427317 0.087123 0.459201 -0.814958
2003-03-05 10:25:53 51°13.785 2°55.664 14.427317 0.087123 0.459201 -0.814958
2003-03-05 10:25:57 51°13.791 2°55.659 14.427668 0.087123 0.459201 -0.781249
2003-03-05 10:26:01 51°13.797 2°55.654 14.429379 0.087123 0.459208 -0.781249
2003-03-05 10:26:08 51°13.808 2°55.646 14.429642 0.087123 0.459201 -0.814958
2003-03-05 10:26:13 51°13.816 2°55.64 14.430563 0.087123 0.459208 -0.814958
2003-03-05 10:26:16 51°13.821 2°55.636 14.432538 0.087123 0.459222 -0.814958
2003-03-05 10:26:23 51°13.833 2°55.626 14.432538 0.087123 0.459222 -0.814958
2003-03-05 10:26:28 51°13.843 2°55.62 14.432099 0.087123 0.459229 -0.814958
2003-03-05 10:26:33 51°13.852 2°55.613 14.433678 0.087123 0.459243 -0.814958
2003-03-05 10:26:37 51°13.859 2°55.608 14.434512 0.087123 0.459257 -0.814958
2003-03-05 10:26:43 51°13.87 2°55.6 14.434951 0.087123 0.459271 -0.814958
2003-03-05 10:26:48 51°13.879 2°55.593 14.437012 0.087123 0.459271 -0.814958
2003-03-05 10:26:53 51°13.889 2°55.586 14.437012 0.087123 0.459271 -0.814958
2003-03-05 10:26:57 51°13.896 2°55.581 14.437012 0.087123 0.459285 -0.814958
2003-03-05 10:27:03 51°13.908 2°55.572 14.438241 0.087123 0.459285 -0.848668
2003-03-05 10:27:08 51°13.917 2°55.566 14.437978 0.087123 0.459292 -0.781249
2003-03-05 10:27:13 51°13.927 2°55.558 14.44061 0.087123 0.459299 -0.814958
2003-03-05 10:27:17 51°13.935 2°55.552 14.44039 0.087123 0.459299 -0.814958
2003-03-05 10:27:23 51°13.947 2°55.543 14.44039 0.087123 0.459299 -0.814958
2003-03-05 10:27:28 51°13.957 2°55.536 14.441048 0.087019 0.458738 -0.814958
2003-03-05 10:27:33 51°13.968 2°55.529 14.441355 0.087123 0.459313 -0.814958
2003-03-05 10:27:37 51°13.976 2°55.524 14.442715 0.087123 0.45932 -0.814958
2003-03-05 10:27:41 51°13.984 2°55.518 14.444294 0.087123 0.459327 -0.848668
2003-03-05 10:27:48 51°13.999 2°55.507 14.444294 0.087123 0.459334 -0.781249
2003-03-05 10:27:53 51°14.01 2°55.5 14.444294 0.087123 0.459334 -0.781249
2003-03-05 10:27:58 51°14.02 2°55.493 14.446268 0.087123 0.459334 -0.781249
2003-03-05 10:28:03 51°14.031 2°55.485 14.447277 0.087123 0.459334 -0.814958
2003-03-05 10:28:08 51°14.041 2°55.477 14.46175 0.087123 0.458346 -0.814958
2003-03-05 10:28:13 51°14.052 2°55.469 13.820571 0.087123 0.458794 -0.814958
2003-03-05 10:28:16 51°14.058 2°55.464 7.757586 0.087123 0.458696 -0.680121
2003-03-05 10:28:23 51°14.073 2°55.452 7.757586 0.087123 0.458696 -0.680121
2003-03-05 10:28:28 51°14.084 2°55.443 6.77428 0.087227 0.459284 0.331161
2003-03-05 10:28:33 51°14.095 2°55.435 6.587469 0.817259 4.937041 2.421144
2003-03-05 10:28:37 51°14.104 2°55.428 6.384978 2.466391 17.125391 3.870648
2003-03-05 10:28:42 51°14.115 2°55.419 6.209157 2.498812 19.600383 10.443982
2003-03-05 10:28:48 51°14.128 2°55.408 6.015185 3.07148 26.430865 17.556665
2003-03-05 10:28:53 51°14.139 2°55.399 6.015185 3.07148 26.430865 17.556665
2003-03-05 10:28:55 51°14.144 2°55.395 5.965412 3.190773 28.180372 19.376973
2003-03-05 10:29:04 51°14.163 2°55.377 5.940137 3.170888 29.172541 17.792631
2003-03-05 10:29:09 51°14.174 2°55.367 5.873153 3.052985 28.698159 16.949896
2003-03-05 10:29:13 51°14.182 2°55.358 10.8358 2.949101 28.055454 17.3207
2003-03-05 10:29:17 51°14.19 2°55.35 7.927163 2.918163 28.025851 17.388118
2003-03-05 10:29:24 51°14.205 2°55.334 7.428062 2.864603 27.732028 17.28699
2003-03-05 10:29:29 51°14.215 2°55.322 7.428062 2.864603 27.732028 17.28699
2003-03-05 10:29:33 51°14.223 2°55.312 7.835375 2.806943 27.264857 17.219571
2003-03-05 10:29:43 51°14.241 2°55.286 7.853122 2.773277 27.09998 17.017315
2003-03-05 10:29:49 51°14.252 2°55.27 7.870768 2.753184 26.937763 16.916187
2003-03-05 10:29:53 51°14.259 2°55.259 7.565062 2.747293 26.917497 16.916187
2003-03-05 10:30:03 51°14.277 2°55.23 8.16224 2.741507 26.901033 16.882477
2003-03-05 10:30:08 51°14.286 2°55.215 8.116674 2.741297 26.919754 16.882477
2003-03-05 10:30:13 51°14.294 2°55.2 7.527843 2.728779 26.794591 16.848768
2003-03-05 10:30:19 51°14.304 2°55.181 7.894999 2.712789 26.644672 16.781349
2003-03-05 10:30:21 51°14.307 2°55.175 8.002474 2.702375 26.543521 16.882477
2003-03-05 10:30:29 51°14.319 2°55.151 8.002474 2.702375 26.543521 16.882477
2003-03-05 10:30:33 51°14.325 2°55.138 7.767442 2.685755 26.377953 16.848768
2003-03-05 10:30:39 51°14.335 2°55.119 8.049522 2.675973 26.27627 16.612802
2003-03-05 10:30:43 51°14.341 2°55.106 7.626836 2.654515 26.043333 16.511674
2003-03-05 10:30:49 51°14.351 2°55.085 7.944837 2.64242 25.910921 16.444255
2003-03-05 10:30:53 51°14.357 2°55.071 7.486311 2.623804 25.712912 16.410546
2003-03-05 10:30:56 51°14.362 2°55.06 7.486311 2.623804 25.712912 16.410546
2003-03-05 10:31:04 51°14.374 2°55.03 7.479581 2.600666 25.463821 15.904905
2003-03-05 10:31:09 51°14.381 2°55.009 7.744474 2.594882 25.400955 15.702648
2003-03-05 10:31:12 51°14.384 2°54.996 7.923919 2.567434 25.097067 15.466683
2003-03-05 10:31:24 51°14.397 2°54.944 8.09359 2.550294 24.903679 15.365554
2003-03-05 10:31:29 51°14.402 2°54.92 8.09359 2.550294 24.903679 15.365554
2003-03-05 10:31:33 51°14.405 2°54.902 7.673528 2.535993 24.744758 15.365554
2003-03-05 10:31:37 51°14.407 2°54.882 7.725968 2.550083 24.896402 15.095879
2003-03-05 10:31:44 51°14.41 2°54.848 7.432942 2.552712 24.927732 15.197007
2003-03-05 10:31:49 51°14.411 2°54.824 7.800738 2.552502 24.931134 14.893623
2003-03-05 10:31:53 51°14.411 2°54.804 7.570273 2.560704 25.018505 14.725076
2003-03-05 10:31:59 51°14.41 2°54.774 7.570273 2.560704 25.018505 14.725076
2003-03-05 10:32:04 51°14.408 2°54.749 7.696619 2.56796 25.096382 14.691366
2003-03-05 10:32:09 51°14.406 2°54.724 7.418495 2.570484 25.128547 14.556529
2003-03-05 10:32:13 51°14.403 2°54.704 7.602455 2.5871 25.32046 14.253144
2003-03-05 10:32:19 51°14.398 2°54.673 7.849486 2.613497 25.616139 14.286853
2003-03-05 10:32:24 51°14.394 2°54.647 7.63248 2.639896 25.926238 14.320563
2003-03-05 10:32:29 51°14.388 2°54.622 7.63248 2.639896 25.926238 14.320563
2003-03-05 10:32:33 51°14.384 2°54.602 7.448167 2.687229 26.461987 14.253144
2003-03-05 10:32:39 51°14.376 2°54.571 7.385537 2.725624 26.904185 14.4554
2003-03-05 10:32:44 51°14.368 2°54.546 7.819029 2.729622 26.962647 14.421691
2003-03-05 10:32:49 51°14.361 2°54.521 7.500548 2.780857 27.553909 14.387982
2003-03-05 10:32:53 51°14.355 2°54.501 7.535591 2.824521 28.049439 14.623947
2003-03-05 10:32:59 51°14.346 2°54.471 7.535591 2.824521 28.049439 14.623947
2003-03-05 10:33:01 51°14.343 2°54.461 7.136265 2.864611 28.513235 14.691366
2003-03-05 10:33:09 51°14.331 2°54.42 8.066872 2.887447 28.786677 14.792494
2003-03-05 10:33:13 51°14.325 2°54.4 7.594715 2.905548 29.009422 14.826204
2003-03-05 10:33:19 51°14.316 2°54.37 7.391593 2.914914 29.121511 14.691366
2003-03-05 10:33:24 51°14.308 2°54.345 7.615644 2.921018 29.196988 14.590238
2003-03-05 10:33:29 51°14.301 2°54.32 7.615644 2.921018 29.196988 14.590238
2003-03-05 10:33:33 51°14.294 2°54.299 7.36893 2.935857 29.365948 14.421691
2003-03-05 10:33:37 51°14.287 2°54.279 7.034544 2.947539 29.499457 14.48911
2003-03-05 10:33:44 51°14.276 2°54.243 7.424401 2.963221 29.685631 14.691366
2003-03-05 10:33:49 51°14.268 2°54.217 6.974112 2.977746 29.869201 14.556529
2003-03-05 10:33:52 51°14.263 2°54.202 7.458608 2.995114 30.073166 14.556529
2003-03-05 10:34:03 51°14.246 2°54.146 7.569056 3.011534 30.266938 14.556529
2003-03-05 10:34:07 51°14.24 2°54.126 7.170086 3.024271 30.425509 14.623947
2003-03-05 10:34:12 51°14.232 2°54.1 7.40258 3.035429 30.563649 14.758785
2003-03-05 10:34:17 51°14.225 2°54.074 7.319766 3.042903 30.658599 14.590238
2003-03-05 10:34:21 51°14.219 2°54.054 7.319766 3.042903 30.658599 14.590238
2003-03-05 10:34:33 51°14.2 2°53.993 7.52258 3.056904 30.827185 14.556529
2003-03-05 10:34:37 51°14.193 2°53.972 7.385684 3.062483 30.899681 14.522819
2003-03-05 10:34:41 51°14.187 2°53.952 7.07161 3.066483 30.945891 14.657657
2003-03-05 10:34:46 51°14.18 2°53.926 6.809625 3.071115 31.005523 14.590238
2003-03-05 10:34:53 51°14.169 2°53.89 6.809625 3.071115 31.005523 14.590238
2003-03-05 10:34:58 51°14.161 2°53.865 7.292284 3.072063 31.024054 14.421691
2003-03-05 10:35:03 51°14.153 2°53.839 7.048833 3.0728 31.032282 14.48911
2003-03-05 10:35:08 51°14.145 2°53.813 6.726679 3.075642 31.064819 14.657657
2003-03-05 10:35:13 51°14.138 2°53.788 7.287931 3.075853 31.073546 14.48911
2003-03-05 10:35:17 51°14.132 2°53.767 7.082701 3.078169 31.101014 14.421691
2003-03-05 10:35:20 51°14.127 2°53.752 7.082701 3.078169 31.101014 14.421691
2003-03-05 10:35:25 51°14.119 2°53.726 7.150139 3.081222 31.143114 14.253144
2003-03-05 10:35:33 51°14.107 2°53.684 6.956955 3.083854 31.180534 14.421691
2003-03-05 10:35:37 51°14.101 2°53.664 6.834852 3.083643 31.185385 14.387982
2003-03-05 10:35:41 51°14.094 2°53.643 6.960249 3.084907 31.204321 14.185725
2003-03-05 10:35:48 51°14.083 2°53.607 6.622572 3.086065 31.217275 13.983469
2003-03-05 10:35:52 51°14.077 2°53.586 6.622572 3.086065 31.217275 13.983469
2003-03-05 10:35:55 51°14.073 2°53.571 6.582771 3.088381 31.248803 13.949759
2003-03-05 10:36:03 51°14.06 2°53.53 6.8613 3.086907 31.239534 13.781212
2003-03-05 10:36:08 51°14.052 2°53.505 6.657705 3.090276 31.278042 13.680084
2003-03-05 10:36:13 51°14.044 2°53.479 6.905357 3.09175 31.296953 13.545247
2003-03-05 10:36:17 51°14.038 2°53.458 7.234592 3.090907 31.290741 13.309281
2003-03-05 10:36:23 51°14.028 2°53.426 7.234592 3.090907 31.290741 13.309281
2003-03-05 10:36:28 51°14.021 2°53.399 6.747549 3.088065 31.268563 13.309281
2003-03-05 10:36:33 51°14.012 2°53.372 6.79405 3.095119 31.345949 13.174443
2003-03-05 10:36:35 51°14.009 2°53.361 6.834803 3.095645 31.355875 13.107024
2003-03-05 10:36:43 51°13.996 2°53.317 7.201539 3.097856 31.380644 13.140734
2003-03-05 10:36:48 51°13.988 2°53.289 7.283137 3.097645 31.378285 13.005896
2003-03-05 10:36:53 51°13.979 2°53.262 7.283137 3.097645 31.378285 13.005896
2003-03-05 10:36:58 51°13.97 2°53.234 7.195564 3.097224 31.373567 13.005896
2003-03-05 10:37:02 51°13.962 2°53.212 7.081131 3.097751 31.376238 12.837349
2003-03-05 10:37:05 51°13.957 2°53.196 7.51561 3.098277 31.381328 12.938477
2003-03-05 10:37:13 51°13.942 2°53.151 7.280838 3.098593 31.38648 12.871059
2003-03-05 10:37:17 51°13.934 2°53.129 7.040977 3.097856 31.377417 12.668802
2003-03-05 10:37:23 51°13.923 2°53.096 7.040977 3.097856 31.377417 12.668802
2003-03-05 10:37:28 51°13.914 2°53.067 7.278343 3.09933 31.393122 12.399127
2003-03-05 10:37:33 51°13.904 2°53.04 7.002518 3.103646 31.441485 12.297999
2003-03-05 10:37:37 51°13.897 2°53.017 6.95902 3.101119 31.412366 12.23058
2003-03-05 10:37:43 51°13.885 2°52.984 6.764614 3.099751 31.397033 12.264289
2003-03-05 10:37:48 51°13.875 2°52.955 6.894038 3.103751 31.444282 12.028324
2003-03-05 10:37:53 51°13.866 2°52.927 6.894038 3.103751 31.444282 12.028324
2003-03-05 10:37:57 51°13.858 2°52.905 6.361308 3.10691 31.479678 12.196871
2003-03-05 10:38:00 51°13.852 2°52.888 7.342984 3.109858 31.51272 12.028324
2003-03-05 10:38:09 51°13.835 2°52.836 6.861104 3.108594 31.496939 12.365418
2003-03-05 10:38:15 51°13.824 2°52.802 7.268656 3.111332 31.52681 12.028324
2003-03-05 10:38:18 51°13.818 2°52.785 6.658199 3.103857 31.438995 11.826067
2003-03-05 10:38:25 51°13.804 2°52.746 7.385049 3.114385 31.55698 11.623811
2003-03-05 10:38:29 51°13.797 2°52.723 6.743553 3.112174 31.530578 11.522683
2003-03-05 10:38:33 51°13.789 2°52.7 6.743553 3.112174 31.530578 11.522683
2003-03-05 10:38:39 51°13.778 2°52.666 7.355103 3.116806 31.577632 11.219298
2003-03-05 10:38:45 51°13.766 2°52.632 7.308862 3.113963 31.544152 11.11817
2003-03-05 10:38:50 51°13.756 2°52.604 6.990479 3.119122 31.595475 11.017042
2003-03-05 10:38:53 51°13.75 2°52.587 7.429624 3.11828 31.590906 10.949623
2003-03-05 10:38:59 51°13.739 2°52.552 6.553435 3.122596 31.639292 10.882204
2003-03-05 10:39:05 51°13.727 2°52.518 6.553435 3.122596 31.639292 10.882204
2003-03-05 10:39:08 51°13.722 2°52.501 7.086087 3.126492 31.678896 10.949623
2003-03-05 10:39:15 51°13.708 2°52.461 7.528964 3.125123 31.665179 11.017042
2003-03-05 10:39:19 51°13.701 2°52.439 7.176408 3.126703 31.683699 10.983332
2003-03-05 10:39:25 51°13.689 2°52.404 7.028062 3.127124 31.685978 10.983332
2003-03-05 10:39:29 51°13.682 2°52.382 7.437042 3.126597 31.680076 10.983332
2003-03-05 10:39:35 51°13.67 2°52.347 7.437042 3.126597 31.680076 10.983332
2003-03-05 10:39:39 51°13.662 2°52.324 7.444361 3.130177 31.716137 10.915913
2003-03-05 10:39:45 51°13.651 2°52.29 7.004385 3.126492 31.673199 11.050751
2003-03-05 10:39:49 51°13.643 2°52.267 6.8079 3.127439 31.676497 10.747366
2003-03-05 10:39:55 51°13.632 2°52.233 6.933153 3.127755 31.673529 10.747366
2003-03-05 10:39:59 51°13.624 2°52.21 6.971016 3.127755 31.667838 10.612529
2003-03-05 10:40:05 51°13.613 2°52.175 6.971016 3.127755 31.667838 10.612529
2003-03-05 10:40:08 51°13.607 2°52.158 6.810463 3.126807 31.649098 10.376563
2003-03-05 10:40:15 51°13.593 2°52.118 6.851698 3.130176 31.681141 10.275435
2003-03-05 10:40:17 51°13.59 2°52.107 7.25745 3.134914 31.730136 10.376563
2003-03-05 10:40:25 51°13.574 2°52.061 7.337852 3.132598 31.699314 10.241725
2003-03-05 10:40:29 51°13.566 2°52.038 7.533593 3.130703 31.678095 10.140597
2003-03-05 10:40:33 51°13.558 2°52.015 7.533593 3.130703 31.678095 10.140597
2003-03-05 10:40:40 51°13.545 2°51.975 7.093447 3.131756 31.688258 10.174306
2003-03-05 10:40:45 51°13.535 2°51.946 7.255101 3.130597 31.673666 10.241725
2003-03-05 10:40:50 51°13.526 2°51.917 6.933842 3.13165 31.686266 10.241725
2003-03-05 10:40:53 51°13.52 2°51.9 7.059045 3.129018 31.655175 10.275435
2003-03-05 10:41:05 51°13.497 2°51.831 7.176408 3.135756 31.730614 10.275435
2003-03-05 10:41:09 51°13.489 2°51.808 7.214861 3.13702 31.743134 10.106888
2003-03-05 10:41:13 51°13.482 2°51.785 7.177878 3.138915 31.764356 10.208016
2003-03-05 10:41:20 51°13.468 2°51.745 7.144648 3.139441 31.771066 10.208016
2003-03-05 10:41:25 51°13.459 2°51.716 7.542607 3.13702 31.744762 10.140597
2003-03-05 10:41:30 51°13.449 2°51.687 7.14406 3.138704 31.761183 10.073178
2003-03-05 10:41:35 51°13.44 2°51.659 7.14406 3.138704 31.761183 10.073178
2003-03-05 10:41:40 51°13.43 2°51.63 6.982026 3.140705 31.786031 10.208016
2003-03-05 10:41:45 51°13.42 2°51.601 7.187677 3.140915 31.785944 10.106888
2003-03-05 10:41:49 51°13.413 2°51.578 7.070089 3.145232 31.836743 10.241725
2003-03-05 10:41:53 51°13.405 2°51.555 7.191743 3.147022 31.85271 9.938341
2003-03-05 10:42:00 51°13.392 2°51.515 7.034102 3.141547 31.790573 10.073178
2003-03-05 10:42:05 51°13.382 2°51.486 7.034102 3.141547 31.790573 10.073178
2003-03-05 10:42:10 51°13.373 2°51.457 6.788183 3.146706 31.849989 10.208016
2003-03-05 10:42:15 51°13.364 2°51.428 7.114099 3.143653 31.81334 10.073178
2003-03-05 10:42:17 51°13.36 2°51.416 6.920019 3.141021 31.783047 10.039469
2003-03-05 10:42:25 51°13.345 2°51.37 7.158962 3.148496 31.862686 9.97205
2003-03-05 10:42:29 51°13.337 2°51.347 6.956955 3.15534 31.936076 10.106888
2003-03-05 10:42:35 51°13.326 2°51.312 6.956955 3.15534 31.936076 10.106888
2003-03-05 10:42:40 51°13.316 2°51.283 6.999569 3.154603 31.930275 9.938341
2003-03-05 10:42:45 51°13.306 2°51.255 7.167195 3.154603 31.931094 9.702375
2003-03-05 10:42:50 51°13.297 2°51.226 7.003746 3.156287 31.947512 10.073178
2003-03-05 10:42:53 51°13.291 2°51.209 6.601265 3.155024 31.9309 9.769794
2003-03-05 10:43:04 51°13.27 2°51.145 7.050257 3.157656 31.957931 9.904631
2003-03-05 10:43:09 51°13.261 2°51.116 7.293947 3.163657 32.026817 9.904631
2003-03-05 10:43:13 51°13.254 2°51.093 6.773639 3.159446 31.978804 9.938341
2003-03-05 10:43:19 51°13.242 2°51.059 6.772455 3.166395 32.052567 9.870922
2003-03-05 10:43:23 51°13.234 2°51.036 7.337706 3.156603 31.94368 9.769794
2003-03-05 10:43:29 51°13.222 2°51.001 7.337706 3.156603 31.94368 9.769794
2003-03-05 10:43:34 51°13.212 2°50.972 7.221226 3.164079 32.02661 9.736084
2003-03-05 10:43:39 51°13.201 2°50.944 6.942006 3.158603 31.961173 9.870922
2003-03-05 10:43:44 51°13.191 2°50.916 6.819973 3.165974 32.041277 9.803503
2003-03-05 10:43:49 51°13.181 2°50.887 6.94417 3.159656 31.970509 9.769794
2003-03-05 10:43:53 51°13.173 2°50.864 7.188215 3.167237 32.054612 9.668665
2003-03-05 10:43:56 51°13.167 2°50.847 7.188215 3.167237 32.054612 9.668665
2003-03-05 10:44:04 51°13.151 2°50.802 7.03037 3.17366 32.122469 9.668665
2003-03-05 10:44:09 51°13.141 2°50.774 7.15406 3.175661 32.139947 9.803503
2003-03-05 10:44:14 51°13.13 2°50.745 7.195515 3.174397 32.129082 9.769794
2003-03-05 10:44:17 51°13.124 2°50.728 6.673461 3.172607 32.105734 9.702375
2003-03-05 10:44:24 51°13.11 2°50.688 7.080493 3.174608 32.129795 9.634956
2003-03-05 10:44:28 51°13.102 2°50.666 7.080493 3.174608 32.129795 9.634956
2003-03-05 10:44:33 51°13.092 2°50.637 7.002861 3.172607 32.104912 9.736084
2003-03-05 10:44:43 51°13.072 2°50.58 6.880797 3.177135 32.149053 9.702375
2003-03-05 10:44:49 51°13.06 2°50.546 7.082407 3.182294 32.207689 9.668665
2003-03-05 10:44:53 51°13.052 2°50.524 6.960937 3.172923 32.100227 9.769794
2003-03-05 10:44:57 51°13.043 2°50.501 6.960937 3.172923 32.100227 9.769794
2003-03-05 10:45:01 51°13.035 2°50.478 6.800803 3.183557 32.217723 9.769794
2003-03-05 10:45:08 51°13.021 2°50.439 7.329983 3.174923 32.118523 9.567537
2003-03-05 10:45:14 51°13.008 2°50.405 6.723372 3.178082 32.151435 9.601247
2003-03-05 10:45:19 51°12.998 2°50.376 7.492552 3.182083 32.198731 9.736084
2003-03-05 10:45:24 51°12.988 2°50.348 6.92848 3.192507 32.312245 9.668665
2003-03-05 10:45:29 51°12.978 2°50.32 6.92848 3.192507 32.312245 9.668665
2003-03-05 10:45:34 51°12.968 2°50.291 6.854997 3.192192 32.309532 9.803503
2003-03-05 10:45:38 51°12.96 2°50.268 7.058308 3.194403 32.335146 9.466409
2003-03-05 10:45:43 51°12.95 2°50.24 7.102376 3.187137 32.252062 9.634956
2003-03-05 10:45:49 51°12.938 2°50.206 7.222304 3.189664 32.278728 9.533828
2003-03-05 10:45:53 51°12.93 2°50.184 6.739211 3.192929 32.313656 9.634956
2003-03-05 10:45:59 51°12.919 2°50.15 6.739211 3.192929 32.313656 9.634956
2003-03-05 10:46:04 51°12.909 2°50.122 7.106595 3.194719 32.331236 9.230443
2003-03-05 10:46:09 51°12.899 2°50.094 7.511321 3.189454 32.269758 9.634956
2003-03-05 10:46:12 51°12.892 2°50.077 7.076518 3.195982 32.341258 9.634956
2003-03-05 10:46:19 51°12.878 2°50.037 7.240075 3.20588 32.449718 9.601247
2003-03-05 10:46:24 51°12.868 2°50.01 6.878828 3.205248 32.440144 9.39899
2003-03-05 10:46:29 51°12.858 2°49.981 6.878828 3.205248 32.440144 9.39899
2003-03-05 10:46:33 51°12.85 2°49.959 7.206486 3.197983 32.357882 9.264153
2003-03-05 10:46:38 51°12.84 2°49.931 7.489236 3.210513 32.496676 9.365281
2003-03-05 10:46:44 51°12.828 2°49.897 7.050306 3.210408 32.491338 9.230443
2003-03-05 10:46:49 51°12.818 2°49.869 7.49304 3.20925 32.472537 9.230443
2003-03-05 10:46:53 51°12.81 2°49.847 7.255639 3.209776 32.478438 9.129315
2003-03-05 10:47:03 51°12.79 2°49.791 7.177192 3.211461 32.49649 9.331571
2003-03-05 10:47:06 51°12.784 2°49.774 7.139599 3.207986 32.451733 9.230443
2003-03-05 10:47:13 51°12.77 2°49.735 7.060664 3.213672 32.513791 9.331571
2003-03-05 10:47:15 51°12.766 2°49.724 6.822141 3.21641 32.543644 9.365281
2003-03-05 10:47:23 51°12.749 2°49.679 6.822141 3.21641 32.543644 9.365281
2003-03-05 10:47:28 51°12.739 2°49.651 7.147933 3.214725 32.518107 9.466409
2003-03-05 10:47:33 51°12.729 2°49.623 7.150629 3.211039 32.478475 9.39899
2003-03-05 10:47:38 51°12.719 2°49.595 7.550742 3.212198 32.488129 9.533828
2003-03-05 10:47:42 51°12.711 2°49.572 7.112039 3.211777 32.480919 9.601247
2003-03-05 10:47:45 51°12.705 2°49.556 7.273793 3.213567 32.499311 9.601247
2003-03-05 10:47:53 51°12.689 2°49.511 7.273793 3.213567 32.499311 9.601247
2003-03-05 10:47:57 51°12.681 2°49.489 7.151903 3.215146 32.513681 9.736084
2003-03-05 10:48:03 51°12.668 2°49.455 7.231019 3.213988 32.500706 9.601247
2003-03-05 10:48:08 51°12.658 2°49.427 6.948055 3.216304 32.524163 9.601247
2003-03-05 10:48:13 51°12.648 2°49.399 7.069205 3.227045 32.640341 9.567537
2003-03-05 10:48:16 51°12.642 2°49.383 6.86716 3.225676 32.624167 9.634956
2003-03-05 10:48:23 51°12.628 2°49.343 6.86716 3.225676 32.624167 9.634956
2003-03-05 10:48:28 51°12.618 2°49.316 7.506788 3.22178 32.57968 9.601247
2003-03-05 10:48:33 51°12.608 2°49.288 7.021971 3.222622 32.589951 9.736084
2003-03-05 10:48:38 51°12.598 2°49.26 7.184786 3.219885 32.560943 9.803503
2003-03-05 10:48:41 51°12.592 2°49.243 7.421814 3.222517 32.592103 9.803503
2003-03-05 10:48:48 51°12.578 2°49.204 7.22152 3.224939 32.62091 9.938341
2003-03-05 10:48:53 51°12.568 2°49.176 7.22152 3.224939 32.62091 9.938341
2003-03-05 10:48:57 51°12.56 2°49.153 7.022954 3.229467 32.670824 9.97205
2003-03-05 10:49:03 51°12.548 2°49.12 7.101297 3.232732 32.709925 10.039469
2003-03-05 10:49:08 51°12.538 2°49.092 6.699286 3.225992 32.634379 10.241725
2003-03-05 10:49:13 51°12.528 2°49.064 6.819382 3.229467 32.670824 10.309144
2003-03-05 10:49:16 51°12.522 2°49.047 6.614515 3.225992 32.638551 10.208016
2003-03-05 10:49:23 51°12.508 2°49.008 6.614515 3.225992 32.638551 10.208016
2003-03-05 10:49:28 51°12.499 2°48.98 6.738323 3.226413 32.641604 10.309144
2003-03-05 10:49:33 51°12.489 2°48.952 6.978782 3.231889 32.704661 10.241725
2003-03-05 10:49:35 51°12.485 2°48.941 6.860168 3.232205 32.709039 10.342853
2003-03-05 10:49:43 51°12.469 2°48.896 6.493486 3.228414 32.668207 10.342853
2003-03-05 10:49:46 51°12.463 2°48.879 6.614762 3.227677 32.660778 10.443982
2003-03-05 10:49:53 51°12.45 2°48.84 6.614762 3.227677 32.660778 10.443982
2003-03-05 10:49:57 51°12.442 2°48.817 6.858937 3.229994 32.685916 10.612529
2003-03-05 10:50:03 51°12.431 2°48.783 6.860562 3.227045 32.65286 10.477691
2003-03-05 10:50:08 51°12.422 2°48.754 7.062235 3.221675 32.590995 10.5114
2003-03-05 10:50:12 51°12.414 2°48.731 6.9806 3.231257 32.699249 10.443982
2003-03-05 10:50:17 51°12.405 2°48.703 7.064297 3.226413 32.644942 10.443982
2003-03-05 10:50:23 51°12.393 2°48.669 7.064297 3.226413 32.644942 10.443982
2003-03-05 10:50:28 51°12.384 2°48.64 7.266111 3.234311 32.73433 10.646238
2003-03-05 10:50:33 51°12.375 2°48.612 7.627614 3.230626 32.692165 10.713657
2003-03-05 10:50:38 51°12.365 2°48.583 6.947809 3.224834 32.626402 10.713657
2003-03-05 10:50:43 51°12.356 2°48.555 7.351634 3.22873 32.670913 10.814785
2003-03-05 10:50:48 51°12.347 2°48.526 7.153129 3.233574 32.726063 10.747366
2003-03-05 10:50:53 51°12.337 2°48.498 7.153129 3.233574 32.726063 10.747366
2003-03-05 10:50:58 51°12.328 2°48.469 7.115718 3.23568 32.75052 10.781076
2003-03-05 10:51:01 51°12.322 2°48.452 7.441434 3.235575 32.745989 10.882204
2003-03-05 10:51:08 51°12.309 2°48.413 7.16249 3.224307 32.617164 10.713657
2003-03-05 10:51:13 51°12.3 2°48.384 7.405802 3.231889 32.699645 10.713657
2003-03-05 10:51:22 51°12.283 2°48.333 7.206682 3.233785 32.720895 10.410272
2003-03-05 10:51:25 51°12.278 2°48.316 7.249962 3.235996 32.744015 10.410272
2003-03-05 10:51:31 51°12.266 2°48.282 7.812189 3.2341 32.720254 10.376563
2003-03-05 10:51:36 51°12.257 2°48.254 7.256129 3.240524 32.789762 10.174306
2003-03-05 10:51:41 51°12.248 2°48.225 7.018435 3.241472 32.79955 10.208016
2003-03-05 10:51:45 51°12.24 2°48.202 7.018435 3.241472 32.79955 10.208016
2003-03-05 10:51:52 51°12.227 2°48.162 7.181503 3.235575 32.729253 10.174306
2003-03-05 10:51:57 51°12.218 2°48.134 7.581668 3.244104 32.8232 10.039469
2003-03-05 10:52:02 51°12.209 2°48.106 7.384902 3.232731 32.69321 9.904631
2003-03-05 10:52:05 51°12.203 2°48.089 7.425036 3.243157 32.806705 9.803503
2003-03-05 10:52:12 51°12.19 2°48.049 7.06518 3.235153 32.712828 9.803503
2003-03-05 10:52:17 51°12.181 2°48.021 7.06518 3.235153 32.712828 9.803503
2003-03-05 10:52:22 51°12.171 2°47.993 7.465242 3.24084 32.774875 9.769794
2003-03-05 10:52:27 51°12.162 2°47.964 7.145629 3.248738 32.863401 9.904631
2003-03-05 10:52:32 51°12.153 2°47.936 7.06788 3.247579 32.84622 9.837212
2003-03-05 10:52:37 51°12.143 2°47.907 6.988022 3.251265 32.885857 9.837212
2003-03-05 10:52:42 51°12.134 2°47.879 7.271493 3.243367 32.798173 9.769794
2003-03-05 10:52:47 51°12.125 2°47.851 7.271493 3.243367 32.798173 9.769794
2003-03-05 10:52:52 51°12.116 2°47.822 6.992395 3.246316 32.828702 9.837212
2003-03-05 10:52:57 51°12.106 2°47.794 7.355298 3.249791 32.867651 9.938341
2003-03-05 10:53:00 51°12.101 2°47.777 7.277462 3.25137 32.884518 10.073178
2003-03-05 10:53:07 51°12.087 2°47.738 6.874348 3.242735 32.784394 10.106888
2003-03-05 10:53:12 51°12.078 2°47.709 7.27619 3.250423 32.871376 10.174306
2003-03-05 10:53:16 51°12.071 2°47.687 7.27619 3.250423 32.871376 10.174306
2003-03-05 10:53:22 51°12.06 2°47.653 7.038522 3.250423 32.870536 9.97205
2003-03-05 10:53:25 51°12.054 2°47.636 7.600313 3.244631 32.801444 9.870922
2003-03-05 10:53:29 51°12.047 2°47.613 7.28299 3.246421 32.821501 10.140597
2003-03-05 10:53:37 51°12.032 2°47.568 6.800359 3.255793 32.926533 10.208016
2003-03-05 10:53:41 51°12.024 2°47.545 7.0452 3.24958 32.856061 9.938341
2003-03-05 10:53:45 51°12.017 2°47.523 7.0452 3.24958 32.856061 9.938341
2003-03-05 10:53:52 51°12.004 2°47.483 7.531449 3.257689 32.94694 9.97205
2003-03-05 10:53:57 51°11.995 2°47.455 7.251724 3.250107 32.861122 10.039469
2003-03-05 10:54:01 51°11.987 2°47.432 7.493137 3.253266 32.894006 10.208016
2003-03-05 10:54:05 51°11.98 2°47.41 7.138961 3.256214 32.92537 10.140597
2003-03-05 10:54:11 51°11.968 2°47.376 7.300843 3.258847 32.949831 9.97205
2003-03-05 10:54:17 51°11.957 2°47.342 7.300843 3.258847 32.949831 9.97205
2003-03-05 10:54:21 51°11.95 2°47.32 7.623771 3.253055 32.886609 9.870922
2003-03-05 10:54:27 51°11.939 2°47.286 7.266454 3.260005 32.961131 10.073178
2003-03-05 10:54:31 51°11.931 2°47.263 7.188215 3.255266 32.906349 9.736084
2003-03-05 10:54:36 51°11.922 2°47.235 7.068862 3.258004 32.935346 9.837212
2003-03-05 10:54:41 51°11.913 2°47.207 7.192281 3.257267 32.922886 9.736084
2003-03-05 10:54:45 51°11.906 2°47.185 7.192281 3.257267 32.922886 9.736084
2003-03-05 10:54:52 51°11.892 2°47.146 6.834359 3.256425 32.910929 9.837212
2003-03-05 10:54:55 51°11.887 2°47.129 7.43548 3.256425 32.90841 9.97205
2003-03-05 10:55:04 51°11.87 2°47.078 7.239145 3.25653 32.907072 9.736084
2003-03-05 10:55:09 51°11.861 2°47.05 7.202029 3.252528 32.860581 9.702375
2003-03-05 10:55:14 51°11.852 2°47.022 6.921593 3.260426 32.949875 9.736084
2003-03-05 10:55:16 51°11.848 2°47.011 7.284849 3.259163 32.93068 9.668665
2003-03-05 10:55:25 51°11.831 2°46.96 7.526576 3.260005 32.935915 9.567537
2003-03-05 10:55:29 51°11.824 2°46.937 7.48792 3.269062 33.038198 9.634956
2003-03-05 10:55:35 51°11.813 2°46.903 7.48792 3.269062 33.038198 9.634956
2003-03-05 10:55:39 51°11.805 2°46.881 7.127635 3.262638 32.965399 9.196734
2003-03-05 10:55:45 51°11.794 2°46.847 7.410001 3.264744 32.986465 9.095606
2003-03-05 10:55:48 51°11.788 2°46.83 6.971507 3.260321 32.934414 9.163024
2003-03-05 10:55:55 51°11.775 2°46.79 7.173811 3.260321 32.931055 9.095606
2003-03-05 10:55:57 51°11.772 2°46.779 7.377478 3.271168 33.052524 8.960768
2003-03-05 10:56:05 51°11.757 2°46.733 7.377478 3.271168 33.052524 8.960768
2003-03-05 10:56:09 51°11.751 2°46.71 7.018533 3.271589 33.055557 8.893349
2003-03-05 10:56:13 51°11.744 2°46.687 7.182973 3.271905 33.056568 8.960768
2003-03-05 10:56:20 51°11.733 2°46.646 7.146266 3.269799 33.031295 8.927059
2003-03-05 10:56:25 51°11.725 2°46.617 7.268362 3.26506 32.978231 8.724802
2003-03-05 10:56:30 51°11.717 2°46.587 7.151462 3.269062 33.020515 8.85964
2003-03-05 10:56:33 51°11.712 2°46.569 7.151462 3.269062 33.020515 8.85964
2003-03-05 10:56:45 51°11.694 2°46.499 7.235865 3.269588 33.022203 8.455127
2003-03-05 10:56:49 51°11.688 2°46.475 6.676819 3.266008 32.978756 8.522546
2003-03-05 10:56:54 51°11.68 2°46.446 7.404142 3.264954 32.964449 8.488836
2003-03-05 10:57:00 51°11.67 2°46.41 7.164549 3.276644 33.092781 8.556255
2003-03-05 10:57:05 51°11.663 2°46.381 7.164549 3.276644 33.092781 8.556255
2003-03-05 10:57:09 51°11.656 2°46.357 7.289936 3.279487 33.122933 8.387708
2003-03-05 10:57:15 51°11.647 2°46.322 7.410977 3.27875 33.109617 8.421418
2003-03-05 10:57:19 51°11.642 2°46.298 7.21535 3.270746 33.019186 8.185452
2003-03-05 10:57:24 51°11.635 2°46.268 7.057326 3.278013 33.097149 8.151742
2003-03-05 10:57:33 51°11.625 2°46.212 7.302554 3.278855 33.104894 8.252871
2003-03-05 10:57:37 51°11.621 2°46.188 7.02315 3.277592 33.087378 7.949486
2003-03-05 10:57:43 51°11.616 2°46.151 7.469193 3.282647 33.139741 7.983195
2003-03-05 10:57:45 51°11.614 2°46.138 7.072003 3.276854 33.07239 8.118033
2003-03-05 10:57:53 51°11.607 2°46.089 7.072003 3.276854 33.07239 8.118033
2003-03-05 10:57:58 51°11.602 2°46.058 7.15455 3.282225 33.129121 8.016905
2003-03-05 10:58:01 51°11.6 2°46.039 7.355738 3.285174 33.158747 8.050614
2003-03-05 10:58:05 51°11.596 2°46.014 7.12175 3.285701 33.163796 8.016905
2003-03-05 10:58:13 51°11.589 2°45.964 7.205115 3.281172 33.107223 7.983195
2003-03-05 10:58:17 51°11.586 2°45.939 7.487822 3.282752 33.120682 7.983195
2003-03-05 10:58:21 51°11.582 2°45.914 7.487822 3.282752 33.120682 7.983195
2003-03-05 10:58:28 51°11.576 2°45.871 7.212069 3.28212 33.111086 7.983195
2003-03-05 10:58:33 51°11.571 2°45.839 7.094379 3.286754 33.161234 7.882067
2003-03-05 10:58:38 51°11.567 2°45.808 7.65933 3.281593 33.101828 7.848358
2003-03-05 10:58:41 51°11.564 2°45.79 7.384023 3.283489 33.118816 7.915777
2003-03-05 10:58:45 51°11.561 2°45.765 7.628588 3.283489 33.117974 7.74723
2003-03-05 10:58:53 51°11.553 2°45.715 7.628588 3.283489 33.117974 7.74723
2003-03-05 10:58:57 51°11.55 2°45.69 7.434211 3.285279 33.133782 7.71352
2003-03-05 10:59:03 51°11.544 2°45.653 7.399894 3.296548 33.256445 7.71352
2003-03-05 10:59:13 51°11.535 2°45.591 7.329983 3.296126 33.245814 7.578683
2003-03-05 10:59:17 51°11.531 2°45.566 7.456461 3.29897 33.2717 7.646101
2003-03-05 10:59:23 51°11.526 2°45.528 7.456461 3.29897 33.2717 7.646101
2003-03-05 10:59:28 51°11.521 2°45.497 7.020056 3.292124 33.19093 7.544973
2003-03-05 10:59:33 51°11.517 2°45.467 7.984961 3.299391 33.267955 7.207879
2003-03-05 10:59:37 51°11.513 2°45.441 7.230333 3.303182 33.303583 7.275298
2003-03-05 10:59:43 51°11.508 2°45.404 7.235327 3.291282 33.166338 7.376426
2003-03-05 10:59:48 51°11.503 2°45.373 6.838941 3.296337 33.217767 7.376426
2003-03-05 10:59:53 51°11.499 2°45.342 6.838941 3.296337 33.217767 7.376426
2003-03-05 10:59:58 51°11.494 2°45.311 7.203058 3.295178 33.19892 7.275298
2003-03-05 11:00:02 51°11.49 2°45.286 7.044905 3.299601 33.244965 7.443845
2003-03-05 11:00:05 51°11.487 2°45.268 7.207172 3.306026 33.313374 7.376426
2003-03-05 11:00:13 51°11.48 2°45.218 7.331107 3.298127 33.2209 7.342717
2003-03-05 11:00:17 51°11.476 2°45.193 7.417372 3.305394 33.294478 7.241589
2003-03-05 11:00:23 51°11.471 2°45.156 7.417372 3.305394 33.294478 7.241589
2003-03-05 11:00:28 51°11.466 2°45.125 7.257988 3.303287 33.265883 7.544973
2003-03-05 11:00:33 51°11.462 2°45.094 6.980306 3.310659 33.345694 7.275298
2003-03-05 11:00:37 51°11.458 2°45.069 7.263224 3.312766 33.366687 7.14046
2003-03-05 11:00:43 51°11.453 2°45.032 7.065769 3.310028 33.33356 7.241589
2003-03-05 11:00:47 51°11.449 2°45.007 7.430307 3.311186 33.343117 7.241589
2003-03-05 11:00:53 51°11.444 2°44.97 7.430307 3.311186 33.343117 7.241589
2003-03-05 11:00:56 51°11.441 2°44.952 6.99156 3.314346 33.375021 7.477554
2003-03-05 11:01:01 51°11.436 2°44.921 7.316588 3.310765 33.330802 7.376426
2003-03-05 11:01:07 51°11.431 2°44.884 7.520192 3.310554 33.32676 7.477554
2003-03-05 11:01:12 51°11.426 2°44.853 7.000503 3.310133 33.320367 7.410136
2003-03-05 11:01:17 51°11.422 2°44.822 7.646149 3.310027 33.314122 7.275298
2003-03-05 11:01:22 51°11.417 2°44.791 7.646149 3.310027 33.314122 7.275298
2003-03-05 11:01:28 51°11.412 2°44.754 7.211286 3.311712 33.328708 7.241589
2003-03-05 11:01:33 51°11.407 2°44.723 7.731554 3.31603 33.372682 7.309007
2003-03-05 11:01:37 51°11.403 2°44.699 7.41913 3.310448 33.308691 7.410136
2003-03-05 11:01:43 51°11.398 2°44.662 7.66288 3.316346 33.373671 7.410136
2003-03-05 11:01:48 51°11.393 2°44.631 7.385049 3.319506 33.405556 7.410136
2003-03-05 11:01:53 51°11.389 2°44.601 7.385049 3.319506 33.405556 7.410136
2003-03-05 11:01:57 51°11.385 2°44.576 7.505374 3.320243 33.408706 7.309007
2003-03-05 11:02:03 51°11.379 2°44.539 7.308716 3.319295 33.393049 7.275298
2003-03-05 11:02:08 51°11.375 2°44.508 7.550645 3.321928 33.422434 7.073042
2003-03-05 11:02:12 51°11.371 2°44.484 7.352855 3.318558 33.378058 7.14046
2003-03-05 11:02:18 51°11.366 2°44.447 7.555662 3.321823 33.411947 7.14046
2003-03-05 11:02:23 51°11.361 2°44.417 7.555662 3.321823 33.411947 7.14046
2003-03-05 11:02:28 51°11.357 2°44.386 7.160187 3.328037 33.477897 7.106751
2003-03-05 11:02:33 51°11.352 2°44.355 6.921298 3.328563 33.481231 7.14046
2003-03-05 11:02:37 51°11.348 2°44.331 7.003746 3.324034 33.427313 7.241589
2003-03-05 11:02:43 51°11.343 2°44.294 7.568228 3.327826 33.468766 7.275298
2003-03-05 11:02:48 51°11.339 2°44.264 7.172831 3.320137 33.38131 7.275298
2003-03-05 11:02:52 51°11.335 2°44.239 7.172831 3.320137 33.38131 7.275298
2003-03-05 11:02:57 51°11.33 2°44.209 7.496843 3.327615 33.461333 7.443845
2003-03-05 11:03:01 51°11.327 2°44.185 7.420252 3.326562 33.447044 7.207879
2003-03-05 11:03:08 51°11.32 2°44.142 7.342984 3.326667 33.444833 7.241589
2003-03-05 11:03:13 51°11.316 2°44.112 7.706193 3.326141 33.437267 7.275298
2003-03-05 11:03:17 51°11.312 2°44.087 7.512734 3.321401 33.381039 7.410136
2003-03-05 11:03:23 51°11.307 2°44.051 7.512734 3.321401 33.381039 7.410136
2003-03-05 11:03:26 51°11.304 2°44.033 7.312334 3.324982 33.41589 7.309007
2003-03-05 11:03:33 51°11.296 2°43.991 7.555954 3.321928 33.378464 7.376426
2003-03-05 11:03:38 51°11.291 2°43.961 7.479825 3.327194 33.432936 7.410136
2003-03-05 11:03:41 51°11.288 2°43.943 7.402726 3.323718 33.391663 7.410136
2003-03-05 11:03:47 51°11.281 2°43.907 7.487335 3.32772 33.433732 7.477554
2003-03-05 11:03:53 51°11.275 2°43.871 7.487335 3.32772 33.433732 7.477554
2003-03-05 11:03:57 51°11.27 2°43.847 7.609464 3.330459 33.461717 7.511264
2003-03-05 11:04:01 51°11.266 2°43.823 7.331449 3.322665 33.372329 7.376426
2003-03-05 11:04:08 51°11.258 2°43.781 7.575386 3.329827 33.448752 7.578683
2003-03-05 11:04:13 51°11.253 2°43.752 7.69691 3.328141 33.426593 7.578683
2003-03-05 11:04:17 51°11.248 2°43.728 7.458071 3.333934 33.48691 7.410136
2003-03-05 11:04:23 51°11.242 2°43.692 7.458071 3.333934 33.48691 7.410136
2003-03-05 11:04:27 51°11.238 2°43.668 7.619148 3.332354 33.465922 7.309007
2003-03-05 11:04:33 51°11.231 2°43.632 7.581376 3.327825 33.414625 7.410136
2003-03-05 11:04:38 51°11.225 2°43.602 7.18312 3.328141 33.413922 7.376426
2003-03-05 11:04:41 51°11.222 2°43.584 7.46373 3.333407 33.471735 7.376426
2003-03-05 11:04:45 51°11.218 2°43.561 7.305439 3.336672 33.503877 7.342717
2003-03-05 11:04:53 51°11.209 2°43.513 7.305439 3.336672 33.503877 7.342717
2003-03-05 11:04:57 51°11.205 2°43.489 7.545871 3.325719 33.381039 7.612392
2003-03-05 11:05:03 51°11.198 2°43.454 7.226465 3.330669 33.431094 7.612392
2003-03-05 11:05:06 51°11.195 2°43.436 7.946871 3.327404 33.396427 7.443845
2003-03-05 11:05:13 51°11.187 2°43.394 7.668715 3.327509 33.395913 7.71352
2003-03-05 11:05:17 51°11.183 2°43.37 7.310134 3.336462 33.493068 7.544973
2003-03-05 11:05:23 51°11.176 2°43.335 7.310134 3.336462 33.493068 7.544973
2003-03-05 11:05:28 51°11.17 2°43.305 7.588727 3.333829 33.462899 7.544973
2003-03-05 11:05:33 51°11.165 2°43.275 7.270955 3.335408 33.479646 7.679811
2003-03-05 11:05:37 51°11.161 2°43.251 7.392081 3.334882 33.472091 7.612392
2003-03-05 11:05:41 51°11.156 2°43.228 7.392179 3.332143 33.43991 7.477554
2003-03-05 11:05:48 51°11.149 2°43.186 7.668374 3.334882 33.469555 7.544973
2003-03-05 11:05:53 51°11.143 2°43.157 7.668374 3.334882 33.469555 7.544973
2003-03-05 11:05:57 51°11.139 2°43.133 7.589847 3.333723 33.45581 7.578683
2003-03-05 11:06:03 51°11.132 2°43.097 7.308324 3.327614 33.387808 7.74723
2003-03-05 11:06:08 51°11.127 2°43.068 7.22764 3.335935 33.480437 7.679811
2003-03-05 11:06:13 51°11.121 2°43.038 7.426402 3.327614 33.386121 7.646101
2003-03-05 11:06:17 51°11.116 2°43.015 7.506251 3.327193 33.381433 7.646101
2003-03-05 11:06:23 51°11.11 2°42.979 7.506251 3.327193 33.381433 7.646101
2003-03-05 11:06:28 51°11.104 2°42.949 7.382997 3.332881 33.448119 7.646101
2003-03-05 11:06:33 51°11.099 2°42.92 7.941642 3.328878 33.401876 7.780939
2003-03-05 11:06:37 51°11.094 2°42.896 7.102032 3.332143 33.439066 7.848358
2003-03-05 11:06:42 51°11.089 2°42.866 7.302603 3.333302 33.45112 7.780939
2003-03-05 11:06:48 51°11.082 2°42.831 7.422644 3.331722 33.436909 7.71352
2003-03-05 11:06:53 51°11.077 2°42.801 7.422644 3.331722 33.436909 7.71352
2003-03-05 11:06:57 51°11.073 2°42.777 7.42362 3.330458 33.422838 7.814648
2003-03-05 11:07:03 51°11.066 2°42.742 7.581132 3.329616 33.412614 7.949486
2003-03-05 11:07:13 51°11.055 2°42.684 7.376403 3.3392 33.521028 7.814648
2003-03-05 11:07:17 51°11.051 2°42.662 7.896743 3.338041 33.510664 7.814648
2003-03-05 11:07:23 51°11.045 2°42.63 7.896743 3.338041 33.510664 7.814648
2003-03-05 11:07:25 51°11.043 2°42.619 7.419276 3.337936 33.507798 7.882067
2003-03-05 11:07:33 51°11.035 2°42.58 7.417079 3.338884 33.520896 7.814648
2003-03-05 11:07:37 51°11.032 2°42.561 7.65612 3.338884 33.519202 7.848358
2003-03-05 11:07:41 51°11.028 2°42.542 7.098647 3.338779 33.520569 7.74723
2003-03-05 11:07:48 51°11.021 2°42.51 7.295072 3.338673 33.520243 7.679811
2003-03-05 11:07:52 51°11.018 2°42.492 7.295072 3.338673 33.520243 7.679811
2003-03-05 11:07:57 51°11.013 2°42.47 7.373522 3.33741 33.506164 7.949486
2003-03-05 11:08:03 51°11.007 2°42.444 7.37445 3.337726 33.509684 7.814648
2003-03-05 11:08:07 51°11.004 2°42.426 7.373033 3.338568 33.520763 7.780939
2003-03-05 11:08:13 51°11 2°42.4 7.572854 3.337936 33.512877 7.74723
2003-03-05 11:08:17 51°10.999 2°42.383 7.37611 3.337515 33.508184 7.848358
2003-03-05 11:08:20 51°10.998 2°42.37 -999 -999 -999 -2.871232
2003-03-05 11:08:28 51°10.997 2°42.336 7.532667 3.338358 33.519263 7.74723
2003-03-05 11:08:33 51°10.997 2°42.316 7.452461 2.142284 20.575288 7.882067
2003-03-05 11:08:37 51°10.998 2°42.301 7.611313 3.33762 33.512744 7.679811
2003-03-05 11:08:41 51°10.999 2°42.286 6.971065 3.337304 33.508377 7.74723
2003-03-05 11:08:48 51°11.002 2°42.26 7.572075 3.338147 33.517764 7.74723
2003-03-05 11:08:53 51°11.004 2°42.242 7.572075 3.338147 33.517764 7.74723
2003-03-05 11:08:57 51°11.006 2°42.228 6.97077 3.337831 33.513397 7.71352
2003-03-05 11:09:03 51°11.008 2°42.207 7.369955 3.337936 33.513723 7.780939
2003-03-05 11:09:08 51°11.011 2°42.19 7.168763 3.338463 33.522131 7.71352
2003-03-05 11:09:13 51°11.013 2°42.173 7.451046 3.339095 33.530018 7.612392
2003-03-05 11:09:17 51°11.015 2°42.161 7.331009 3.336567 33.50355 7.612392
2003-03-05 11:09:23 51°11.019 2°42.143 7.331009 3.336567 33.50355 7.612392
2003-03-05 11:09:28 51°11.022 2°42.129 7.090258 3.336567 33.501857 7.780939
2003-03-05 11:09:33 51°11.026 2°42.117 7.172292 3.337094 33.509417 7.848358
2003-03-05 11:09:37 51°11.029 2°42.109 6.976275 3.338042 33.522519 7.679811
2003-03-05 11:09:43 51°11.034 2°42.098 7.212167 3.338252 33.524019 7.646101
2003-03-05 11:09:48 51°11.039 2°42.089 7.295903 3.338147 33.52454 7.646101
2003-03-05 11:09:53 51°11.043 2°42.081 7.295903 3.338147 33.52454 7.646101
2003-03-05 11:09:57 51°11.047 2°42.075 7.431576 3.338568 33.52754 7.646101
2003-03-05 11:10:01 51°11.05 2°42.071 7.575484 3.337726 33.517305 7.679811
2003-03-05 11:10:06 51°11.055 2°42.065 7.616423 3.338358 33.523498 7.74723
2003-03-05 11:10:13 51°11.061 2°42.058 7.65539 3.335619 33.491298 7.511264
2003-03-05 11:10:17 51°11.065 2°42.055 7.336728 3.337199 33.50805 7.679811
2003-03-05 11:10:23 51°11.07 2°42.051 7.336728 3.337199 33.50805 7.679811
2003-03-05 11:10:28 51°11.074 2°42.048 7.773074 3.338779 33.526498 7.511264
2003-03-05 11:10:33 51°11.077 2°42.045 7.535591 3.338463 33.523825 7.309007
2003-03-05 11:10:37 51°11.08 2°42.044 7.217064 3.339305 33.532365 7.544973
2003-03-05 11:10:43 51°11.084 2°42.042 7.417324 3.338989 33.52715 7.17417
2003-03-05 11:10:47 51°11.086 2°42.041 8.171938 3.338989 33.52715 6.938204
2003-03-05 11:10:53 51°11.089 2°42.039 8.171938 3.338989 33.52715 6.938204
2003-03-05 11:10:57 51°11.092 2°42.038 7.176653 3.339305 33.530671 7.14046
2003-03-05 11:11:03 51°11.095 2°42.037 7.535932 3.336778 33.502511 6.837076
2003-03-05 11:11:05 51°11.097 2°42.037 7.617542 3.339411 33.530997 6.870785
2003-03-05 11:11:13 51°11.101 2°42.036 7.135186 3.3392 33.52865 6.803366
2003-03-05 11:11:17 51°11.103 2°42.035 7.137736 3.340359 33.54071 6.837076
2003-03-05 11:11:21 51°11.105 2°42.035 7.137736 3.340359 33.54071 6.837076
2003-03-05 11:11:28 51°11.109 2°42.034 7.496111 3.339937 33.536017 6.735947
2003-03-05 11:11:33 51°11.112 2°42.034 7.652472 3.339411 33.53015 6.803366
2003-03-05 11:11:37 51°11.114 2°42.034 7.33619 3.340359 33.543252 6.702238
2003-03-05 11:11:43 51°11.116 2°42.034 7.145138 3.338147 33.516917 6.769657
2003-03-05 11:11:48 51°11.118 2°42.034 7.416835 3.340569 33.543057 6.803366
2003-03-05 11:11:52 51°11.12 2°42.035 7.416835 3.340569 33.543057 6.803366
2003-03-05 11:11:58 51°11.122 2°42.035 7.734517 3.338147 33.517764 6.668529
2003-03-05 11:12:01 51°11.123 2°42.035 7.334529 3.338884 33.525977 6.735947
2003-03-05 11:12:05 51°11.124 2°42.035 7.253339 3.339621 33.533344 6.702238
2003-03-05 11:12:15 51°11.127 2°42.034 7.21109 3.340675 33.545925 6.60111
2003-03-05 11:12:20 51°11.129 2°42.034 7.449387 3.339305 33.530671 6.702238
2003-03-05 11:12:25 51°11.13 2°42.034 7.531449 3.339621 33.534191 6.5674
2003-03-05 11:12:28 51°11.131 2°42.034 7.413076 3.341096 33.553163 6.5674
2003-03-05 11:12:35 51°11.133 2°42.034 7.413076 3.341096 33.553163 6.5674
2003-03-05 11:12:37 51°11.134 2°42.034 7.612724 3.340885 33.551663 6.5674
2003-03-05 11:12:45 51°11.136 2°42.034 7.49343 3.341307 33.556358 6.499982
2003-03-05 11:12:49 51°11.137 2°42.034 7.054528 3.341307 33.557206 6.634819
2003-03-05 11:12:54 51°11.138 2°42.033 7.53944 3.326772 33.395297 6.702238
2003-03-05 11:13:00 51°11.139 2°42.033 7.496696 3.340991 33.552837 6.803366
2003-03-05 11:13:05 51°11.141 2°42.033 7.496696 3.340991 33.552837 6.803366
2003-03-05 11:13:09 51°11.142 2°42.033 7.257988 3.339727 33.537906 6.735947
2003-03-05 11:13:15 51°11.143 2°42.033 7.258527 3.338358 33.524345 6.5674
2003-03-05 11:13:20 51°11.144 2°42.032 7.50981 3.338147 33.520304 6.634819
2003-03-05 11:13:24 51°11.145 2°42.032 7.379334 3.338463 33.522131 6.5674
2003-03-05 11:13:29 51°11.146 2°42.032 7.219806 3.338463 33.521284 6.466272
2003-03-05 11:13:32 51°11.147 2°42.032 7.219806 3.338463 33.521284 6.466272
2003-03-05 11:13:40 51°11.149 2°42.032 7.380604 3.338042 33.51659 6.634819
2003-03-05 11:13:45 51°11.15 2°42.031 7.219219 3.341939 33.55916 6.533691
2003-03-05 11:13:49 51°11.151 2°42.031 7.421473 3.342044 33.558637 6.5674
2003-03-05 11:13:55 51°11.152 2°42.031 7.460608 3.341517 33.55277 6.466272
2003-03-05 11:13:57 51°11.152 2°42.031 7.943772 3.342044 33.558637 6.466272
2003-03-05 11:14:05 51°11.154 2°42.03 7.943772 3.342044 33.558637 6.466272
2003-03-05 11:14:09 51°11.155 2°42.03 7.14406 3.341728 33.555117 6.466272
2003-03-05 11:14:15 51°11.156 2°42.03 7.426451 3.342149 33.559811 6.398853
2003-03-05 11:14:20 51°11.157 2°42.03 7.268166 3.342149 33.558115 6.331435
2003-03-05 11:14:25 51°11.159 2°42.029 6.906882 3.341728 33.553422 6.466272
2003-03-05 11:14:29 51°11.16 2°42.029 7.389786 3.342465 33.561635 6.331435
2003-03-05 11:14:33 51°11.16 2°42.029 7.389786 3.342465 33.561635 6.331435
2003-03-05 11:14:36 51°11.161 2°42.029 7.312383 3.342676 33.559743 6.5674
2003-03-05 11:14:45 51°11.163 2°42.029 7.355103 3.342676 33.558048 6.466272
2003-03-05 11:14:49 51°11.164 2°42.028 7.790935 3.343308 33.561697 6.432563
2003-03-05 11:14:54 51°11.165 2°42.028 7.31429 3.343308 33.559154 6.398853
2003-03-05 11:15:00 51°11.166 2°42.028 7.393595 3.343518 33.564043 6.466272
2003-03-05 11:15:05 51°11.167 2°42.027 7.393595 3.343518 33.564043 6.466272
2003-03-05 11:15:09 51°11.168 2°42.027 7.352269 3.34257 33.552638 6.466272
2003-03-05 11:15:13 51°11.169 2°42.027 6.990675 3.34394 33.567888 6.432563
2003-03-05 11:15:20 51°11.171 2°42.026 7.313703 3.343729 33.562151 6.634819
2003-03-05 11:15:25 51°11.172 2°42.026 7.031794 3.344045 33.567366 6.634819
2003-03-05 11:15:29 51°11.172 2°42.026 7.270368 3.343624 33.562673 6.5674
2003-03-05 11:15:35 51°11.174 2°42.025 7.270368 3.343624 33.562673 6.5674
2003-03-05 11:15:40 51°11.175 2°42.025 6.867357 3.344045 33.566518 6.668529
2003-03-05 11:15:45 51°11.175 2°42.024 7.430453 3.34394 33.565345 6.60111
2003-03-05 11:15:49 51°11.176 2°42.024 7.508884 3.34394 33.565345 6.634819
2003-03-05 11:15:55 51°11.178 2°42.024 7.631117 3.343624 33.562673 6.60111
2003-03-05 11:16:00 51°11.179 2°42.023 7.310427 3.34394 33.56704 6.499982
2003-03-05 11:16:05 51°11.18 2°42.023 7.310427 3.34394 33.56704 6.499982
2003-03-05 11:16:09 51°11.181 2°42.022 7.667888 3.343834 33.565867 6.837076
2003-03-05 11:16:15 51°11.182 2°42.022 7.545676 3.343834 33.566715 6.60111
2003-03-05 11:16:20 51°11.183 2°42.021 7.507519 3.343624 33.564369 6.533691
2003-03-05 11:16:25 51°11.184 2°42.021 7.227591 3.343729 33.565542 6.533691
2003-03-05 11:16:30 51°11.185 2°42.02 7.264007 3.343624 33.565216 6.634819
2003-03-05 11:16:33 51°11.186 2°42.02 7.264007 3.343624 33.565216 6.634819
2003-03-05 11:16:37 51°11.187 2°42.019 7.466413 3.344045 33.569909 6.735947
2003-03-05 11:16:45 51°11.188 2°42.018 7.264154 3.343624 33.564369 6.668529
2003-03-05 11:16:49 51°11.189 2°42.018 7.858164 3.343624 33.566912 6.634819
2003-03-05 11:16:55 51°11.19 2°42.017 7.543337 3.34394 33.571279 6.803366
2003-03-05 11:17:00 51°11.192 2°42.017 7.019073 3.343729 33.568933 6.702238
2003-03-05 11:17:05 51°11.193 2°42.016 7.019073 3.343729 33.568933 6.702238
2003-03-05 11:17:10 51°11.194 2°42.014 7.421326 3.343308 33.565935 6.668529
2003-03-05 11:17:13 51°11.195 2°42.012 7.299816 3.343518 33.568282 6.702238
2003-03-05 11:17:20 51°11.198 2°42.008 7.21393 3.343834 33.573498 6.668529
2003-03-05 11:17:25 51°11.201 2°42.003 7.213049 3.343097 33.565284 6.634819
2003-03-05 11:17:29 51°11.202 2°41.998 7.453241 3.343624 33.571151 6.634819
2003-03-05 11:17:33 51°11.204 2°41.993 7.453241 3.343624 33.571151 6.634819
2003-03-05 11:17:40 51°11.206 2°41.982 7.573926 3.343834 33.576042 6.668529
2003-03-05 11:17:45 51°11.207 2°41.973 7.492162 3.343518 33.57337 6.769657
2003-03-05 11:17:49 51°11.207 2°41.965 7.531546 3.343413 33.573893 6.769657
2003-03-05 11:17:52 51°11.207 2°41.959 7.490358 3.343202 33.572394 6.668529
2003-03-05 11:18:00 51°11.207 2°41.942 7.96754 3.343097 33.574613 6.60111
2003-03-05 11:18:05 51°11.206 2°41.931 7.96754 3.343097 33.574613 6.60111
2003-03-05 11:18:07 51°11.205 2°41.927 7.411417 3.342886 33.571418 6.769657
2003-03-05 11:18:15 51°11.201 2°41.908 7.487286 3.343097 33.574613 6.769657
2003-03-05 11:18:20 51°11.198 2°41.897 7.68821 3.342992 33.575985 6.735947
2003-03-05 11:18:25 51°11.194 2°41.884 7.251479 3.342781 33.573637 6.837076
2003-03-05 11:18:29 51°11.19 2°41.873 7.369662 3.342676 33.57416 6.769657
2003-03-05 11:18:33 51°11.186 2°41.86 7.369662 3.342676 33.57416 6.769657
2003-03-05 11:18:37 51°11.181 2°41.847 7.24913 3.342781 33.574486 6.803366
2003-03-05 11:18:45 51°11.169 2°41.817 7.212902 3.343203 33.58003 6.769657
2003-03-05 11:18:49 51°11.163 2°41.8 7.692536 3.341096 33.556554 6.803366
2003-03-05 11:18:55 51°11.153 2°41.773 7.291306 3.342571 33.572138 6.735947
2003-03-05 11:19:00 51°11.144 2°41.75 7.411758 3.342571 33.573835 6.668529
2003-03-05 11:19:05 51°11.135 2°41.727 7.411758 3.342571 33.573835 6.668529
2003-03-05 11:19:09 51°11.127 2°41.708 7.289594 3.342676 33.57416 6.735947
2003-03-05 11:19:15 51°11.116 2°41.679 7.648338 3.342571 33.574684 6.634819
2003-03-05 11:19:20 51°11.106 2°41.655 7.335408 3.342676 33.57416 7.005623
2003-03-05 11:19:25 51°11.096 2°41.63 7.329983 3.343202 33.578332 6.60111
2003-03-05 11:19:29 51°11.088 2°41.61 7.452705 3.343097 33.577159 6.634819
2003-03-05 11:19:35 51°11.076 2°41.579 7.452705 3.343097 33.577159 6.634819
2003-03-05 11:19:40 51°11.066 2°41.553 7.007824 3.341939 33.565096 6.702238
2003-03-05 11:19:45 51°11.057 2°41.527 7.452558 3.342992 33.577682 6.769657
2003-03-05 11:19:49 51°11.049 2°41.507 7.563309 3.343203 33.579181 6.837076
2003-03-05 11:19:52 51°11.043 2°41.491 7.329494 3.342992 33.575136 6.971913
2003-03-05 11:20:00 51°11.028 2°41.449 7.490602 3.343308 33.578658 7.14046
2003-03-05 11:20:04 51°11.02 2°41.428 7.490602 3.343308 33.578658 7.14046
2003-03-05 11:20:10 51°11.009 2°41.397 7.487481 3.343202 33.578332 6.870785
2003-03-05 11:20:13 51°11.003 2°41.381 7.245068 3.343097 33.57631 7.376426
2003-03-05 11:20:19 51°10.991 2°41.35 7.12739 3.343413 33.581529 7.207879
2003-03-05 11:20:25 51°10.98 2°41.318 7.20678 3.343097 33.578856 7.443845
2003-03-05 11:20:29 51°10.972 2°41.297 7.40673 3.344045 33.591118 7.679811
2003-03-05 11:20:35 51°10.96 2°41.266 7.40673 3.344045 33.591118 7.679811
2003-03-05 11:20:40 51°10.951 2°41.239 7.487091 3.343624 33.584725 7.814648
2003-03-05 11:20:45 51°10.941 2°41.213 7.730631 3.343203 33.582576 7.882067
2003-03-05 11:20:49 51°10.933 2°41.192 6.966542 3.340043 33.545665 7.578683
2003-03-05 11:20:53 51°10.926 2°41.171 7.372007 3.340991 33.557076 7.814648
2003-03-05 11:21:00 51°10.912 2°41.134 7.210796 3.342044 33.569663 7.915777
2003-03-05 11:21:05 51°10.902 2°41.108 7.210796 3.342044 33.569663 7.915777
2003-03-05 11:21:08 51°10.896 2°41.092 7.369418 3.342571 33.577229 7.74723
2003-03-05 11:21:13 51°10.887 2°41.066 7.214273 3.343308 33.582901 7.646101
2003-03-05 11:21:20 51°10.873 2°41.028 7.13244 3.341307 33.561446 7.71352
2003-03-05 11:21:25 51°10.863 2°41.002 7.773462 3.342781 33.576183 7.612392
2003-03-05 11:21:30 51°10.854 2°40.976 8.011906 3.340464 33.549512 7.679811
2003-03-05 11:21:33 51°10.848 2°40.96 8.011906 3.340464 33.549512 7.679811
2003-03-05 11:21:37 51°10.84 2°40.939 7.775064 3.343729 33.585899 7.511264
2003-03-05 11:21:45 51°10.825 2°40.897 7.655682 3.34078 33.552185 7.511264
2003-03-05 11:21:49 51°10.817 2°40.875 7.852104 3.337831 33.517631 7.477554
2003-03-05 11:21:55 51°10.805 2°40.844 7.615304 3.344361 33.591244 7.443845
2003-03-05 11:22:00 51°10.795 2°40.817 7.295854 3.34415 33.588897 7.511264
2003-03-05 11:22:05 51°10.785 2°40.791 7.295854 3.34415 33.588897 7.511264
2003-03-05 11:22:09 51°10.778 2°40.77 7.294583 3.344045 33.586025 7.275298
2003-03-05 11:22:15 51°10.766 2°40.738 7.05551 3.344361 33.588698 7.410136
2003-03-05 11:22:20 51°10.756 2°40.712 7.657433 3.344256 33.587524 7.646101
2003-03-05 11:22:25 51°10.747 2°40.686 7.379676 3.344045 33.586025 7.679811
2003-03-05 11:22:29 51°10.739 2°40.664 7.85768 3.344993 33.594892 7.578683
2003-03-05 11:22:35 51°10.728 2°40.633 7.85768 3.344993 33.594892 7.578683
2003-03-05 11:22:39 51°10.72 2°40.612 7.782588 3.345625 33.601085 7.578683
2003-03-05 11:22:45 51°10.708 2°40.58 7.505179 3.344466 33.589023 7.410136
2003-03-05 11:22:49 51°10.701 2°40.559 7.58605 3.345204 33.595541 7.646101
2003-03-05 11:22:55 51°10.689 2°40.527 7.512637 3.34415 33.583805 7.477554
2003-03-05 11:23:00 51°10.68 2°40.501 7.51483 3.344993 33.591497 7.17417
2003-03-05 11:23:05 51°10.67 2°40.474 7.51483 3.344993 33.591497 7.17417
2003-03-05 11:23:09 51°10.662 2°40.453 7.391349 3.344361 33.582758 7.14046
2003-03-05 11:23:13 51°10.655 2°40.432 7.914619 3.346046 33.601535 7.14046
2003-03-05 11:23:20 51°10.641 2°40.395 7.599729 3.346257 33.600487 7.005623
2003-03-05 11:23:25 51°10.632 2°40.369 7.481922 3.346362 33.599963 6.938204
2003-03-05 11:23:29 51°10.625 2°40.348 7.604937 3.346573 33.599764 7.039332
2003-03-05 11:23:35 51°10.613 2°40.317 7.604937 3.346573 33.599764 7.039332
2003-03-05 11:23:40 51°10.604 2°40.29 7.446362 3.346994 33.601912 6.870785
2003-03-05 11:23:45 51°10.594 2°40.264 7.848322 3.347415 33.606605 6.803366
2003-03-05 11:23:49 51°10.587 2°40.243 7.767636 3.347731 33.60673 6.870785
2003-03-05 11:23:55 51°10.575 2°40.211 7.410245 3.347942 33.605683 6.870785
2003-03-05 11:24:00 51°10.566 2°40.184 7.569543 3.348047 33.603462 6.803366
2003-03-05 11:24:05 51°10.556 2°40.158 7.569543 3.348047 33.603462 6.803366
2003-03-05 11:24:09 51°10.548 2°40.137 7.609026 3.347099 33.591209 6.769657
2003-03-05 11:24:13 51°10.541 2°40.116 7.328516 3.348679 33.607955 6.870785
2003-03-05 11:24:20 51°10.527 2°40.079 7.446996 3.349311 33.613296 6.769657
2003-03-05 11:24:25 51°10.518 2°40.053 7.608539 3.348679 33.602865 6.870785
2003-03-05 11:24:29 51°10.51 2°40.032 7.047802 3.348784 33.602342 7.207879
2003-03-05 11:24:35 51°10.499 2°40 7.047802 3.348784 33.602342 7.207879
2003-03-05 11:24:40 51°10.489 2°39.974 7.406583 3.349522 33.611399 7.443845
2003-03-05 11:24:45 51°10.48 2°39.947 7.207906 3.349416 33.610226 7.207879
2003-03-05 11:24:49 51°10.472 2°39.926 7.166509 3.348679 33.601169 7.275298
2003-03-05 11:24:55 51°10.461 2°39.894 7.448167 3.3491 33.608405 7.309007
2003-03-05 11:25:00 51°10.452 2°39.868 7.327245 3.349522 33.613096 7.477554
2003-03-05 11:25:05 51°10.442 2°39.842 7.327245 3.349522 33.613096 7.477554
2003-03-05 11:25:09 51°10.434 2°39.821 7.206486 3.349206 33.610426 7.309007
2003-03-05 11:25:15 51°10.423 2°39.789 7.207955 3.348995 33.608928 7.544973
2003-03-05 11:25:20 51°10.413 2°39.763 7.090209 3.349627 33.614269 7.410136
2003-03-05 11:25:25 51°10.404 2°39.737 7.330032 3.348784 33.605734 7.443845
2003-03-05 11:25:30 51°10.394 2°39.71 7.608003 3.349206 33.609577 7.71352
2003-03-05 11:25:33 51°10.388 2°39.694 7.608003 3.349206 33.609577 7.71352
2003-03-05 11:25:40 51°10.375 2°39.658 7.409415 3.3491 33.607556 7.511264
2003-03-05 11:25:45 51°10.366 2°39.631 7.413906 3.349311 33.609902 7.410136
2003-03-05 11:25:50 51°10.356 2°39.605 7.4121 3.350048 33.617263 7.679811
2003-03-05 11:25:53 51°10.35 2°39.589 7.174889 3.348679 33.602017 7.74723
2003-03-05 11:26:00 51°10.337 2°39.552 7.214371 3.349732 33.613745 7.679811
2003-03-05 11:26:05 51°10.328 2°39.525 7.214371 3.349732 33.613745 7.679811
2003-03-05 11:26:09 51°10.321 2°39.504 7.173615 3.349838 33.614918 7.477554
2003-03-05 11:26:12 51°10.316 2°39.488 7.098157 3.349732 33.612896 7.511264
2003-03-05 11:26:19 51°10.303 2°39.451 7.301283 3.349206 33.605336 7.578683
2003-03-05 11:26:25 51°10.292 2°39.419 7.541973 3.35047 33.619409 7.443845
2003-03-05 11:26:29 51°10.284 2°39.398 7.623819 3.348784 33.59895 7.511264
2003-03-05 11:26:35 51°10.274 2°39.368 7.623819 3.348784 33.59895 7.511264
2003-03-05 11:26:40 51°10.265 2°39.343 7.423864 3.350891 33.622403 7.544973
2003-03-05 11:26:45 51°10.257 2°39.32 8.022835 3.350575 33.618037 7.544973
2003-03-05 11:26:49 51°10.251 2°39.301 7.38793 3.350785 33.618685 7.309007
2003-03-05 11:26:55 51°10.242 2°39.273 7.310769 3.351207 33.620831 7.309007
2003-03-05 11:27:00 51°10.235 2°39.251 7.431478 3.350891 33.615617 7.342717
2003-03-05 11:27:05 51°10.228 2°39.228 7.431478 3.350891 33.615617 7.342717
2003-03-05 11:27:09 51°10.224 2°39.21 7.833483 3.350153 33.605714 7.241589
2003-03-05 11:27:13 51°10.22 2°39.193 7.11459 3.351628 33.620431 7.14046
2003-03-05 11:27:16 51°10.217 2°39.18 7.278832 3.351733 33.618211 7.207879
2003-03-05 11:27:25 51°10.208 2°39.144 7.397599 3.351839 33.618535 7.005623
2003-03-05 11:27:29 51°10.203 2°39.129 7.600265 3.353102 33.630907 6.938204
2003-03-05 11:27:33 51°10.199 2°39.115 7.600265 3.353102 33.630907 6.938204
2003-03-05 11:27:40 51°10.193 2°39.09 7.119004 3.353102 33.62921 6.904494
2003-03-05 11:27:45 51°10.188 2°39.072 7.120867 3.353734 33.632851 6.837076
2003-03-05 11:27:50 51°10.183 2°39.056 7.150678 3.351628 33.608561 6.803366
2003-03-05 11:27:54 51°10.18 2°39.043 7.20389 3.354261 33.637863 6.904494
2003-03-05 11:28:00 51°10.175 2°39.024 7.565306 3.354156 33.635843 7.106751
2003-03-05 11:28:05 51°10.172 2°39.008 7.565306 3.354156 33.635843 7.106751
2003-03-05 11:28:10 51°10.168 2°38.994 7.127831 3.353734 33.629458 6.837076
2003-03-05 11:28:15 51°10.165 2°38.98 7.208249 3.354788 33.639482 6.769657
2003-03-05 11:28:20 51°10.163 2°38.966 7.649311 3.355209 33.642474 6.735947
2003-03-05 11:28:25 51°10.16 2°38.953 7.128272 3.355736 33.647485 6.702238
2003-03-05 11:28:29 51°10.158 2°38.943 7.089718 3.35542 33.643969 6.5674
2003-03-05 11:28:35 51°10.155 2°38.929 7.089718 3.35542 33.643969 6.5674
2003-03-05 11:28:40 51°10.152 2°38.917 7.532034 3.355525 33.642597 6.533691
2003-03-05 11:28:45 51°10.15 2°38.905 7.251431 3.35563 33.641224 6.499982
2003-03-05 11:28:49 51°10.148 2°38.896 7.494063 3.355735 33.641548 6.634819
2003-03-05 11:28:52 51°10.146 2°38.889 7.212804 3.354788 33.631002 6.499982
2003-03-05 11:29:00 51°10.142 2°38.872 7.453339 3.356262 33.645711 6.466272
2003-03-05 11:29:05 51°10.14 2°38.862 7.453339 3.356262 33.645711 6.466272
2003-03-05 11:29:07 51°10.138 2°38.858 7.095262 3.356262 33.646559 6.60111
2003-03-05 11:29:15 51°10.134 2°38.843 7.259505 3.356367 33.646034 6.466272
2003-03-05 11:29:20 51°10.131 2°38.834 6.896253 3.356578 33.64753 6.634819
2003-03-05 11:29:25 51°10.129 2°38.827 7.419764 3.355314 33.631774 6.365144
2003-03-05 11:29:29 51°10.128 2°38.822 7.820145 3.356578 33.645834 6.466272
2003-03-05 11:29:35 51°10.126 2°38.817 7.820145 3.356578 33.645834 6.466272
2003-03-05 11:29:40 51°10.125 2°38.814 7.341469 3.356894 33.648501 6.196597
2003-03-05 11:29:45 51°10.124 2°38.812 7.502693 3.356789 33.647329 5.960631
2003-03-05 11:29:47 51°10.124 2°38.812 7.626544 3.355735 33.63307 5.893212
2003-03-05 11:29:56 51°10.124 2°38.81 7.54743 3.356157 33.636908 5.758375
2003-03-05 11:30:01 51°10.124 2°38.81 7.107428 3.356473 33.639575 5.792084
2003-03-05 11:30:05 51°10.124 2°38.809 7.629853 3.358053 33.655451 5.724665
2003-03-05 11:30:09 51°10.123 2°38.809 7.629853 3.358053 33.655451 5.724665
2003-03-05 11:30:16 51°10.123 2°38.808 7.352073 3.356051 33.633194 5.556118
2003-03-05 11:30:21 51°10.123 2°38.808 7.833968 3.357737 33.651089 5.4887
2003-03-05 11:30:26 51°10.123 2°38.807 7.393644 3.356789 33.638851 5.421281
2003-03-05 11:30:29 51°10.122 2°38.807 7.512442 3.356051 33.62811 5.320153
2003-03-05 11:30:36 51°10.122 2°38.806 7.472753 3.357947 33.647497 5.219024
2003-03-05 11:30:41 51°10.122 2°38.805 7.472753 3.357947 33.647497 5.219024
2003-03-05 11:30:45 51°10.122 2°38.805 7.512783 3.358263 33.650163 5.219024
2003-03-05 11:30:51 51°10.121 2°38.804 7.672361 3.356578 33.628882 5.286443
2003-03-05 11:30:56 51°10.121 2°38.804 7.310427 3.356999 33.633567 5.421281
2003-03-05 11:31:01 51°10.121 2°38.803 6.993575 3.359106 33.655294 5.623537
2003-03-05 11:31:05 51°10.121 2°38.803 7.346991 3.358368 33.647096 5.623537
2003-03-05 11:31:09 51°10.121 2°38.802 7.346991 3.358368 33.647096 5.623537
2003-03-05 11:31:13 51°10.121 2°38.802 7.67839 3.358474 33.647419 5.623537
2003-03-05 11:31:21 51°10.121 2°38.802 7.593644 3.359211 33.654769 5.724665
2003-03-05 11:31:25 51°10.121 2°38.801 7.109243 3.359316 33.65594 5.926922
2003-03-05 11:31:31 51°10.121 2°38.801 7.908952 3.357315 33.635385 5.792084
2003-03-05 11:31:36 51°10.121 2°38.8 7.471095 3.35879 33.65178 5.758375
2003-03-05 11:31:40 51°10.121 2°38.8 7.471095 3.35879 33.65178 5.758375
2003-03-05 11:31:45 51°10.121 2°38.799 7.588922 3.358474 33.65081 5.758375
2003-03-05 11:31:51 51°10.121 2°38.799 7.749719 3.359106 33.658685 5.960631
2003-03-05 11:31:56 51°10.121 2°38.799 7.790159 3.357526 33.638575 5.859503
2003-03-05 11:32:01 51°10.121 2°38.798 7.273499 3.359422 33.660503 5.893212
2003-03-05 11:32:05 51°10.121 2°38.798 7.553762 3.358368 33.648791 5.758375
2003-03-05 11:32:11 51°10.121 2°38.798 7.553762 3.358368 33.648791 5.758375
2003-03-05 11:32:16 51°10.121 2°38.797 7.553908 3.356894 33.632395 5.724665
2003-03-05 11:32:21 51°10.121 2°38.797 7.748311 3.358895 33.655495 5.994341
2003-03-05 11:32:25 51°10.121 2°38.797 7.751807 3.356894 33.633243 5.792084
2003-03-05 11:32:31 51°10.121 2°38.796 7.150972 3.358263 33.64762 5.792084
2003-03-05 11:32:36 51°10.121 2°38.796 7.672361 3.35879 33.652628 5.859503
2003-03-05 11:32:49 51°10.121 2°38.794 7.7163 3.357104 33.632196 6.061759
2003-03-05 11:32:53 51°10.121 2°38.794 7.641236 3.358895 33.653799 5.960631
2003-03-05 11:32:59 51°10.121 2°38.794 7.641236 3.358895 33.653799 5.960631
2003-03-05 11:33:01 51°10.121 2°38.793 7.806755 3.359422 33.658807 5.994341
2003-03-05 11:33:09 51°10.121 2°38.793 7.568569 3.359211 33.657313 5.792084
2003-03-05 11:33:13 51°10.121 2°38.792 7.609074 3.356894 33.629854 6.129178
2003-03-05 11:33:17 51°10.121 2°38.792 7.491138 3.359316 33.65594 5.893212
2003-03-05 11:33:23 51°10.121 2°38.791 7.808162 3.356683 33.624971 5.825794
2003-03-05 11:33:29 51°10.121 2°38.791 7.808162 3.356683 33.624971 5.825794
2003-03-05 11:33:33 51°10.121 2°38.79 7.16989 3.358368 33.640317 5.724665
2003-03-05 11:33:38 51°10.121 2°38.79 7.411026 3.358474 33.637252 6.02805
2003-03-05 11:33:42 51°10.121 2°38.79 7.7283 3.36058 33.65643 5.724665
2003-03-05 11:33:48 51°10.121 2°38.79 7.610145 3.359737 33.647912 5.792084
2003-03-05 11:33:53 51°10.121 2°38.79 7.32881 3.360685 33.656754 5.758375
2003-03-05 11:33:57 51°10.121 2°38.789 7.32881 3.360685 33.656754 5.758375
2003-03-05 11:34:04 51°10.121 2°38.789 7.449582 3.360053 33.64973 5.825794
2003-03-05 11:34:09 51°10.121 2°38.789 7.250501 3.359211 33.639518 5.792084
2003-03-05 11:34:13 51°10.121 2°38.789 7.728931 3.359316 33.640689 5.792084
2003-03-05 11:34:19 51°10.121 2°38.789 7.551765 3.358158 33.629506 5.825794
2003-03-05 11:34:23 51°10.121 2°38.789 7.412149 3.359105 33.639195 5.960631
2003-03-05 11:34:29 51°10.121 2°38.789 7.412149 3.359105 33.639195 5.960631
2003-03-05 11:34:33 51°10.121 2°38.788 7.690203 3.361212 33.662607 5.859503
2003-03-05 11:34:39 51°10.121 2°38.788 7.771908 3.360791 33.657077 5.758375
2003-03-05 11:34:43 51°10.121 2°38.787 7.249718 3.360159 33.649206 5.792084
2003-03-05 11:34:49 51°10.121 2°38.787 7.45329 3.360896 33.656553 5.758375
2003-03-05 11:34:53 51°10.121 2°38.787 7.652764 3.358368 33.630154 5.893212
2003-03-05 11:34:59 51°10.121 2°38.787 7.652764 3.358368 33.630154 5.893212
2003-03-05 11:35:04 51°10.121 2°38.787 7.454559 3.361001 33.659418 5.758375
2003-03-05 11:35:09 51°10.121 2°38.787 7.45812 3.359632 33.642507 5.758375
2003-03-05 11:35:13 51°10.121 2°38.786 7.734955 3.361001 33.657724 5.724665
2003-03-05 11:35:17 51°10.121 2°38.786 7.85414 3.361212 33.660912 5.724665
2003-03-05 11:35:24 51°10.121 2°38.785 7.775015 3.359632 33.642507 5.825794
2003-03-05 11:35:29 51°10.12 2°38.784 7.775015 3.359632 33.642507 5.825794
2003-03-05 11:35:33 51°10.12 2°38.782 7.773025 3.359316 33.638148 5.758375
2003-03-05 11:35:39 51°10.118 2°38.776 7.613114 3.361212 33.657523 5.690956
2003-03-05 11:35:43 51°10.116 2°38.77 7.731117 3.360791 33.6503 5.724665
2003-03-05 11:35:48 51°10.113 2°38.76 7.691467 3.361739 33.660834 5.792084
2003-03-05 11:36:00 51°10.102 2°38.731 7.532911 3.361633 33.658816 5.758375
2003-03-05 11:36:05 51°10.097 2°38.716 7.532911 3.361633 33.658816 5.758375
2003-03-05 11:36:10 51°10.091 2°38.701 7.296294 3.361317 33.655305 5.792084
2003-03-05 11:36:14 51°10.086 2°38.687 7.539878 3.36058 33.6505 5.690956
2003-03-05 11:36:20 51°10.078 2°38.665 7.42074 3.360791 33.653688 5.690956
2003-03-05 11:36:25 51°10.071 2°38.646 7.181552 3.361001 33.658571 5.724665
2003-03-05 11:36:30 51°10.063 2°38.626 7.623819 3.359737 33.64283 5.657247
2003-03-05 11:36:33 51°10.058 2°38.614 7.623819 3.359737 33.64283 5.657247
2003-03-05 11:36:37 51°10.052 2°38.597 7.62776 3.360685 33.653365 5.893212
2003-03-05 11:36:45 51°10.039 2°38.561 7.628733 3.359211 33.633591 5.724665
2003-03-05 11:36:48 51°10.033 2°38.547 7.267188 3.361001 33.653488 5.589828
2003-03-05 11:36:52 51°10.026 2°38.528 7.589652 3.361949 33.660633 5.353862
2003-03-05 11:37:00 51°10.011 2°38.489 7.713627 3.361739 33.656598 5.45499
2003-03-05 11:37:05 51°10.002 2°38.465 7.713627 3.361739 33.656598 5.45499
2003-03-05 11:37:09 51°9.995 2°38.446 7.869072 3.36216 33.660432 5.320153
2003-03-05 11:37:13 51°9.987 2°38.426 7.712121 3.361423 33.648853 5.353862
2003-03-05 11:37:20 51°9.975 2°38.39 7.154599 3.361001 33.643326 5.45499
2003-03-05 11:37:25 51°9.966 2°38.365 7.636469 3.36237 33.655997 5.4887
2003-03-05 11:37:29 51°9.959 2°38.345 7.559023 3.361528 33.64833 5.556118
2003-03-05 11:37:33 51°9.952 2°38.325 7.559023 3.361528 33.64833 5.556118
2003-03-05 11:37:40 51°9.94 2°38.289 7.518973 3.363108 33.664188 5.522409
2003-03-05 11:37:45 51°9.932 2°38.263 7.675765 3.360264 33.630058 5.657247
2003-03-05 11:37:49 51°9.925 2°38.242 7.760451 3.36079 33.634215 5.657247
2003-03-05 11:37:55 51°9.914 2°38.212 7.480313 3.36237 33.651764 5.724665
2003-03-05 11:38:00 51°9.904 2°38.187 7.518535 3.36079 33.630831 5.893212
2003-03-05 11:38:05 51°9.894 2°38.163 7.518535 3.36079 33.630831 5.893212
2003-03-05 11:38:09 51°9.886 2°38.144 7.478606 3.360053 33.620952 6.02805
2003-03-05 11:38:15 51°9.874 2°38.114 7.680432 3.36237 33.647531 5.893212
2003-03-05 11:38:20 51°9.864 2°38.09 7.682474 3.364056 33.666248 6.061759
2003-03-05 11:38:25 51°9.854 2°38.065 7.489139 3.361528 33.637327 6.264016
2003-03-05 11:38:29 51°9.847 2°38.045 7.689376 3.362054 33.643176 6.162888
2003-03-05 11:38:39 51°9.827 2°37.995 7.692828 3.36374 33.661892 6.196597
2003-03-05 11:38:44 51°9.818 2°37.97 7.729708 3.362265 33.645515 6.061759
2003-03-05 11:38:53 51°9.801 2°37.925 7.529353 3.362054 33.64233 6.162888
2003-03-05 11:38:57 51°9.794 2°37.905 7.929924 3.363634 33.656489 5.893212
2003-03-05 11:39:03 51°9.784 2°37.874 7.569591 3.36237 33.639916 6.02805
2003-03-05 11:39:07 51°9.777 2°37.853 7.330081 3.363529 33.650242 6.129178
2003-03-05 11:39:13 51°9.767 2°37.823 8.241806 3.364055 33.655243 6.297725
2003-03-05 11:39:17 51°9.76 2°37.802 7.652278 3.364266 33.654197 6.398853
2003-03-05 11:39:23 51°9.75 2°37.771 7.652278 3.364266 33.654197 6.398853
2003-03-05 11:39:27 51°9.743 2°37.751 7.812674 3.363634 33.649719 6.398853
2003-03-05 11:39:33 51°9.733 2°37.72 8.253467 3.363002 33.643549 6.466272
2003-03-05 11:39:37 51°9.727 2°37.699 7.666672 3.36395 33.652382 6.702238
2003-03-05 11:39:43 51°9.717 2°37.668 8.105616 3.364161 33.656413 6.702238
2003-03-05 11:39:48 51°9.709 2°37.642 7.629074 3.364582 33.661937 6.702238
2003-03-05 11:39:53 51°9.701 2°37.616 7.629074 3.364582 33.661937 6.702238
2003-03-05 11:39:57 51°9.694 2°37.595 7.509176 3.364793 33.661737 6.5674
2003-03-05 11:40:03 51°9.684 2°37.564 7.592233 3.364371 33.655367 6.398853
2003-03-05 11:40:08 51°9.675 2°37.539 7.473046 3.364793 33.65666 6.095469
2003-03-05 11:40:12 51°9.668 2°37.519 7.712364 3.365003 33.653076 6.162888
2003-03-05 11:40:17 51°9.658 2°37.494 7.512734 3.364371 33.643525 6.095469
2003-03-05 11:40:21 51°9.651 2°37.474 7.512734 3.364371 33.643525 6.095469
2003-03-05 11:40:28 51°9.638 2°37.439 7.791469 3.363634 33.632807 5.825794
2003-03-05 11:40:33 51°9.629 2°37.414 7.435187 3.363423 33.629624 5.926922
2003-03-05 11:40:37 51°9.622 2°37.394 7.635301 3.364582 33.639945 5.893212
2003-03-05 11:40:43 51°9.611 2°37.364 7.714259 3.363845 33.633454 5.893212
2003-03-05 11:40:45 51°9.607 2°37.354 7.714162 3.363845 33.631764 5.758375
2003-03-05 11:40:53 51°9.592 2°37.314 7.714162 3.363845 33.631764 5.758375
2003-03-05 11:40:58 51°9.583 2°37.289 7.47685 3.363739 33.62975 5.724665
2003-03-05 11:41:03 51°9.574 2°37.264 7.480361 3.363107 33.623583 5.623537
2003-03-05 11:41:08 51°9.566 2°37.238 7.761082 3.362054 33.611052 5.522409
2003-03-05 11:41:13 51°9.558 2°37.213 8.116433 3.362791 33.616698 5.623537
2003-03-05 11:41:16 51°9.552 2°37.197 7.757197 3.362897 33.617866 5.556118
2003-03-05 11:41:23 51°9.539 2°37.162 7.757197 3.362897 33.617866 5.556118
2003-03-05 11:41:28 51°9.53 2°37.137 7.555321 3.362581 33.614361 5.522409
2003-03-05 11:41:33 51°9.521 2°37.112 7.393693 3.361527 33.600987 5.4887
2003-03-05 11:41:37 51°9.514 2°37.092 7.51639 3.363107 33.61767 5.4887
2003-03-05 11:41:43 51°9.503 2°37.061 7.355592 3.362265 33.605789 5.657247
2003-03-05 11:41:45 51°9.5 2°37.051 7.518632 3.362475 33.608126 5.690956
2003-03-05 11:41:53 51°9.487 2°37.009 7.518632 3.362475 33.608126 5.690956
2003-03-05 11:41:58 51°9.48 2°36.983 7.598025 3.363002 33.613968 5.859503
2003-03-05 11:42:01 51°9.475 2°36.967 7.555321 3.362897 33.616177 5.724665
2003-03-05 11:42:08 51°9.464 2°36.93 7.875421 3.363213 33.620527 5.657247
2003-03-05 11:42:13 51°9.456 2°36.904 7.634037 3.362581 33.612672 5.724665
2003-03-05 11:42:17 51°9.45 2°36.883 7.433235 3.363002 33.619035 5.724665
2003-03-05 11:42:21 51°9.444 2°36.862 7.433235 3.363002 33.619035 5.724665
2003-03-05 11:42:28 51°9.434 2°36.825 7.91428 3.362791 33.615009 5.758375
2003-03-05 11:42:33 51°9.427 2°36.798 7.796371 3.362581 33.611827 5.758375
2003-03-05 11:42:37 51°9.422 2°36.776 7.477826 3.362686 33.612151 5.792084
2003-03-05 11:42:43 51°9.414 2°36.744 8.233998 3.362897 33.616177 5.893212
2003-03-05 11:42:45 51°9.412 2°36.733 7.759819 3.363002 33.61988 5.893212
2003-03-05 11:42:53 51°9.402 2°36.69 7.759819 3.363002 33.61988 5.893212
2003-03-05 11:42:57 51°9.398 2°36.67 7.442068 3.363002 33.61988 5.859503
2003-03-05 11:43:01 51°9.394 2°36.65 7.600654 3.363002 33.61819 6.095469
2003-03-05 11:43:08 51°9.388 2°36.619 7.677321 3.363318 33.619162 5.859503
2003-03-05 11:43:13 51°9.384 2°36.598 7.835811 3.362686 33.61384 5.758375
2003-03-05 11:43:17 51°9.381 2°36.583 7.599486 3.363423 33.618641 5.960631
2003-03-05 11:43:23 51°9.376 2°36.561 7.599486 3.363423 33.618641 5.960631
2003-03-05 11:43:25 51°9.374 2°36.555 7.560338 3.36395 33.622794 5.960631
2003-03-05 11:43:33 51°9.368 2°36.529 7.442605 3.363528 33.617276 5.926922
2003-03-05 11:43:37 51°9.364 2°36.517 7.241837 3.363634 33.618445 6.196597
2003-03-05 11:43:40 51°9.362 2°36.508 7.724705 3.363213 33.616305 6.297725
2003-03-05 11:43:46 51°9.357 2°36.492 7.645322 3.363634 33.622667 6.162888
2003-03-05 11:43:53 51°9.352 2°36.474 7.645322 3.363634 33.622667 6.162888
2003-03-05 11:43:57 51°9.349 2°36.464 7.245998 3.363739 33.623836 6.061759
2003-03-05 11:44:01 51°9.346 2°36.455 7.8069 3.363845 33.62416 5.960631
2003-03-05 11:44:06 51°9.343 2°36.444 7.450509 3.363213 33.61546 5.960631
2003-03-05 11:44:13 51°9.339 2°36.429 7.171508 3.363423 33.616952 5.758375
2003-03-05 11:44:17 51°9.337 2°36.42 7.69098 3.363318 33.614095 5.758375
2003-03-05 11:44:23 51°9.334 2°36.408 7.69098 3.363318 33.614095 5.758375
2003-03-05 11:44:27 51°9.332 2°36.401 7.493625 3.363423 33.612731 5.623537
2003-03-05 11:44:33 51°9.329 2°36.389 7.211041 3.363528 33.613055 5.45499
2003-03-05 11:44:38 51°9.327 2°36.381 7.249669 3.363423 33.611887 5.4887
2003-03-05 11:44:41 51°9.326 2°36.375 7.488115 3.363844 33.613183 5.45499
2003-03-05 11:44:45 51°9.325 2°36.369 7.847255 3.363739 33.612015 5.4887
2003-03-05 11:44:53 51°9.322 2°36.356 7.847255 3.363739 33.612015 5.4887
2003-03-05 11:44:57 51°9.321 2°36.349 7.647268 3.364476 33.616814 5.185315
2003-03-05 11:45:03 51°9.319 2°36.34 7.76516 3.36416 33.614155 5.320153
2003-03-05 11:45:08 51°9.318 2°36.333 7.486847 3.36416 33.614999 5.084187
2003-03-05 11:45:19 51°9.315 2°36.317 7.599583 3.364476 33.619347 5.522409
2003-03-05 11:45:24 51°9.314 2°36.31 7.440409 3.364266 33.617855 5.4887
2003-03-05 11:45:35 51°9.311 2°36.297 7.719312 3.364371 33.621556 5.589828
2003-03-05 11:45:40 51°9.31 2°36.291 7.558536 3.364582 33.623892 5.589828
2003-03-05 11:45:52 51°9.307 2°36.277 7.715571 3.364687 33.627594 5.690956
2003-03-05 11:45:57 51°9.306 2°36.272 7.437237 3.364792 33.629607 5.556118
2003-03-05 11:46:01 51°9.305 2°36.268 7.477045 3.364476 33.627791 5.623537
2003-03-05 11:46:07 51°9.304 2°36.262 7.596468 3.364582 33.629805 5.657247
2003-03-05 11:46:12 51°9.303 2°36.258 7.596614 3.364687 33.633508 5.758375
2003-03-05 11:46:17 51°9.302 2°36.254 7.596614 3.364687 33.633508 5.758375
2003-03-05 11:46:21 51°9.301 2°36.252 7.476655 3.364371 33.630002 5.690956
2003-03-05 11:46:25 51°9.3 2°36.249 7.357693 3.364266 33.628834 5.690956
2003-03-05 11:46:30 51°9.3 2°36.247 7.51834 3.363739 33.624681 5.690956
2003-03-05 11:46:37 51°9.299 2°36.246 7.520874 3.364371 33.629157 5.657247
2003-03-05 11:46:41 51°9.299 2°36.247 7.680869 3.364476 33.629481 5.623537
2003-03-05 11:46:46 51°9.3 2°36.248 7.680869 3.364476 33.629481 5.623537
2003-03-05 11:46:52 51°9.301 2°36.251 7.319717 3.36395 33.626173 5.556118
2003-03-05 11:46:57 51°9.302 2°36.253 7.281523 3.364266 33.630523 5.556118
2003-03-05 11:47:01 51°9.303 2°36.255 7.681064 3.364266 33.630523 5.45499
2003-03-05 11:47:06 51°9.304 2°36.257 7.961684 3.364055 33.626497 5.387571
2003-03-05 11:47:12 51°9.304 2°36.259 7.319081 3.364055 33.625652 5.522409
2003-03-05 11:47:17 51°9.305 2°36.261 7.319081 3.364055 33.625652 5.522409
2003-03-05 11:47:21 51°9.306 2°36.262 7.479825 3.364266 33.627144 5.4887
2003-03-05 11:47:27 51°9.307 2°36.264 7.039209 3.364266 33.625455 5.252734
2003-03-05 11:47:29 51°9.307 2°36.265 7.55688 3.36416 33.624286 5.4887
2003-03-05 11:47:37 51°9.309 2°36.268 7.278098 3.364476 33.625258 5.421281